<?xml version="1.0" encoding="UTF-8" standalone="no" ?>
<gpx xmlns="http://www.topografix.com/GPX/1/1" xmlns:xsi="http://www.w3.org/2001/XMLSchema-instance" xsi:schemaLocation="http://www.topografix.com/GPX/1/1 http://www.topografix.com/GPX/1/1/gpx.xsd" version="1.1" creator="VisuGPX - https://www.visugpx.com">
  <metadata>
    <name>Concoules - la virade des roncs</name>
    <desc><![CDATA[Superbe rando, avec une belle variété de sentiers et paysages.]]></desc>
  </metadata>
  <trk>
    <name><![CDATA[2011-09-20-01]]></name>
    <trkseg>
      <trkpt lat="44.37995" lon="3.93923">
        <ele>631.7</ele>
        <time>2011-09-20T12:20:57Z</time>
      </trkpt>
      <trkpt lat="44.37991" lon="3.93914">
        <ele>633.5</ele>
        <time>2011-09-20T12:25:13Z</time>
      </trkpt>
      <trkpt lat="44.37991" lon="3.93902">
        <ele>623.2</ele>
        <time>2011-09-20T12:25:22Z</time>
      </trkpt>
      <trkpt lat="44.37987" lon="3.93891">
        <ele>630.9</ele>
        <time>2011-09-20T12:25:38Z</time>
      </trkpt>
      <trkpt lat="44.37988" lon="3.93878">
        <ele>637</ele>
        <time>2011-09-20T12:25:59Z</time>
      </trkpt>
      <trkpt lat="44.3798" lon="3.93879">
        <ele>641.2</ele>
        <time>2011-09-20T12:26:31Z</time>
      </trkpt>
      <trkpt lat="44.37972" lon="3.93883">
        <ele>643.2</ele>
        <time>2011-09-20T12:26:40Z</time>
      </trkpt>
      <trkpt lat="44.37964" lon="3.9389">
        <ele>647</ele>
        <time>2011-09-20T12:26:47Z</time>
      </trkpt>
      <trkpt lat="44.37956" lon="3.93893">
        <ele>644.5</ele>
        <time>2011-09-20T12:26:58Z</time>
      </trkpt>
      <trkpt lat="44.37948" lon="3.93893">
        <ele>639.7</ele>
        <time>2011-09-20T12:27:09Z</time>
      </trkpt>
      <trkpt lat="44.37939" lon="3.93893">
        <ele>635.7</ele>
        <time>2011-09-20T12:27:19Z</time>
      </trkpt>
      <trkpt lat="44.37931" lon="3.93893">
        <ele>636.9</ele>
        <time>2011-09-20T12:27:28Z</time>
      </trkpt>
      <trkpt lat="44.37922" lon="3.93893">
        <ele>640</ele>
        <time>2011-09-20T12:27:37Z</time>
      </trkpt>
      <trkpt lat="44.37914" lon="3.93895">
        <ele>643.5</ele>
        <time>2011-09-20T12:27:44Z</time>
      </trkpt>
      <trkpt lat="44.37906" lon="3.93888">
        <ele>641.7</ele>
        <time>2011-09-20T12:27:53Z</time>
      </trkpt>
      <trkpt lat="44.37899" lon="3.93883">
        <ele>641.2</ele>
        <time>2011-09-20T12:28:01Z</time>
      </trkpt>
      <trkpt lat="44.3789" lon="3.9388">
        <ele>642.5</ele>
        <time>2011-09-20T12:28:09Z</time>
      </trkpt>
      <trkpt lat="44.37882" lon="3.9388">
        <ele>643.5</ele>
        <time>2011-09-20T12:28:17Z</time>
      </trkpt>
      <trkpt lat="44.37873" lon="3.93884">
        <ele>645.7</ele>
        <time>2011-09-20T12:28:27Z</time>
      </trkpt>
      <trkpt lat="44.37866" lon="3.93889">
        <ele>647.7</ele>
        <time>2011-09-20T12:28:39Z</time>
      </trkpt>
      <trkpt lat="44.37858" lon="3.93893">
        <ele>648.5</ele>
        <time>2011-09-20T12:28:49Z</time>
      </trkpt>
      <trkpt lat="44.37849" lon="3.93895">
        <ele>645.4</ele>
        <time>2011-09-20T12:29:01Z</time>
      </trkpt>
      <trkpt lat="44.37841" lon="3.93898">
        <ele>645.7</ele>
        <time>2011-09-20T12:29:10Z</time>
      </trkpt>
      <trkpt lat="44.37832" lon="3.93901">
        <ele>646</ele>
        <time>2011-09-20T12:29:18Z</time>
      </trkpt>
      <trkpt lat="44.37824" lon="3.93902">
        <ele>644.2</ele>
        <time>2011-09-20T12:29:28Z</time>
      </trkpt>
      <trkpt lat="44.37815" lon="3.939">
        <ele>644.4</ele>
        <time>2011-09-20T12:29:37Z</time>
      </trkpt>
      <trkpt lat="44.37807" lon="3.93898">
        <ele>643.4</ele>
        <time>2011-09-20T12:29:46Z</time>
      </trkpt>
      <trkpt lat="44.37798" lon="3.93896">
        <ele>644.5</ele>
        <time>2011-09-20T12:29:56Z</time>
      </trkpt>
      <trkpt lat="44.3779" lon="3.93892">
        <ele>650.5</ele>
        <time>2011-09-20T12:30:08Z</time>
      </trkpt>
      <trkpt lat="44.37783" lon="3.93885">
        <ele>649.7</ele>
        <time>2011-09-20T12:30:19Z</time>
      </trkpt>
      <trkpt lat="44.37775" lon="3.93879">
        <ele>649.4</ele>
        <time>2011-09-20T12:30:30Z</time>
      </trkpt>
      <trkpt lat="44.37766" lon="3.93877">
        <ele>654</ele>
        <time>2011-09-20T12:30:39Z</time>
      </trkpt>
      <trkpt lat="44.37758" lon="3.93873">
        <ele>649.7</ele>
        <time>2011-09-20T12:30:46Z</time>
      </trkpt>
      <trkpt lat="44.3775" lon="3.93874">
        <ele>652.4</ele>
        <time>2011-09-20T12:30:55Z</time>
      </trkpt>
      <trkpt lat="44.37742" lon="3.93876">
        <ele>660.5</ele>
        <time>2011-09-20T12:31:02Z</time>
      </trkpt>
      <trkpt lat="44.37735" lon="3.9387">
        <ele>661</ele>
        <time>2011-09-20T12:31:11Z</time>
      </trkpt>
      <trkpt lat="44.3773" lon="3.9386">
        <ele>660.5</ele>
        <time>2011-09-20T12:31:20Z</time>
      </trkpt>
      <trkpt lat="44.37726" lon="3.9385">
        <ele>660</ele>
        <time>2011-09-20T12:31:27Z</time>
      </trkpt>
      <trkpt lat="44.37722" lon="3.93839">
        <ele>666.2</ele>
        <time>2011-09-20T12:31:34Z</time>
      </trkpt>
      <trkpt lat="44.37717" lon="3.93829">
        <ele>674.7</ele>
        <time>2011-09-20T12:31:41Z</time>
      </trkpt>
      <trkpt lat="44.37711" lon="3.9382">
        <ele>672</ele>
        <time>2011-09-20T12:31:50Z</time>
      </trkpt>
      <trkpt lat="44.37703" lon="3.93815">
        <ele>669.2</ele>
        <time>2011-09-20T12:31:58Z</time>
      </trkpt>
      <trkpt lat="44.37695" lon="3.93811">
        <ele>668.5</ele>
        <time>2011-09-20T12:32:06Z</time>
      </trkpt>
      <trkpt lat="44.37687" lon="3.93808">
        <ele>668.5</ele>
        <time>2011-09-20T12:32:15Z</time>
      </trkpt>
      <trkpt lat="44.37679" lon="3.93805">
        <ele>668.2</ele>
        <time>2011-09-20T12:32:24Z</time>
      </trkpt>
      <trkpt lat="44.3767" lon="3.93803">
        <ele>668.2</ele>
        <time>2011-09-20T12:32:34Z</time>
      </trkpt>
      <trkpt lat="44.37662" lon="3.938">
        <ele>667.7</ele>
        <time>2011-09-20T12:32:42Z</time>
      </trkpt>
      <trkpt lat="44.37654" lon="3.93798">
        <ele>667.7</ele>
        <time>2011-09-20T12:32:50Z</time>
      </trkpt>
      <trkpt lat="44.37646" lon="3.93796">
        <ele>667.2</ele>
        <time>2011-09-20T12:32:58Z</time>
      </trkpt>
      <trkpt lat="44.37649" lon="3.93785">
        <ele>666.9</ele>
        <time>2011-09-20T12:33:15Z</time>
      </trkpt>
      <trkpt lat="44.37657" lon="3.93782">
        <ele>671.2</ele>
        <time>2011-09-20T12:33:22Z</time>
      </trkpt>
      <trkpt lat="44.37665" lon="3.93781">
        <ele>672.2</ele>
        <time>2011-09-20T12:33:29Z</time>
      </trkpt>
      <trkpt lat="44.37674" lon="3.93781">
        <ele>679</ele>
        <time>2011-09-20T12:33:40Z</time>
      </trkpt>
      <trkpt lat="44.37682" lon="3.9378">
        <ele>679.4</ele>
        <time>2011-09-20T12:33:50Z</time>
      </trkpt>
      <trkpt lat="44.3769" lon="3.93777">
        <ele>678.2</ele>
        <time>2011-09-20T12:34:00Z</time>
      </trkpt>
      <trkpt lat="44.37699" lon="3.93776">
        <ele>679</ele>
        <time>2011-09-20T12:34:11Z</time>
      </trkpt>
      <trkpt lat="44.37708" lon="3.93778">
        <ele>680.4</ele>
        <time>2011-09-20T12:34:22Z</time>
      </trkpt>
      <trkpt lat="44.37713" lon="3.9377">
        <ele>682.7</ele>
        <time>2011-09-20T12:34:27Z</time>
      </trkpt>
      <trkpt lat="44.3772" lon="3.93763">
        <ele>681</ele>
        <time>2011-09-20T12:34:35Z</time>
      </trkpt>
      <trkpt lat="44.37729" lon="3.93759">
        <ele>681.2</ele>
        <time>2011-09-20T12:34:46Z</time>
      </trkpt>
      <trkpt lat="44.37737" lon="3.93761">
        <ele>684.9</ele>
        <time>2011-09-20T12:34:54Z</time>
      </trkpt>
      <trkpt lat="44.37742" lon="3.9377">
        <ele>688.7</ele>
        <time>2011-09-20T12:35:01Z</time>
      </trkpt>
      <trkpt lat="44.37744" lon="3.9378">
        <ele>692.2</ele>
        <time>2011-09-20T12:35:04Z</time>
      </trkpt>
      <trkpt lat="44.37747" lon="3.93788">
        <ele>694.4</ele>
        <time>2011-09-20T12:35:09Z</time>
      </trkpt>
      <trkpt lat="44.37756" lon="3.9379">
        <ele>688.7</ele>
        <time>2011-09-20T12:35:19Z</time>
      </trkpt>
      <trkpt lat="44.37764" lon="3.93788">
        <ele>682.5</ele>
        <time>2011-09-20T12:35:30Z</time>
      </trkpt>
      <trkpt lat="44.37772" lon="3.93785">
        <ele>682.2</ele>
        <time>2011-09-20T12:35:35Z</time>
      </trkpt>
      <trkpt lat="44.37779" lon="3.93781">
        <ele>679</ele>
        <time>2011-09-20T12:35:41Z</time>
      </trkpt>
      <trkpt lat="44.37787" lon="3.93782">
        <ele>679</ele>
        <time>2011-09-20T12:35:50Z</time>
      </trkpt>
      <trkpt lat="44.37796" lon="3.9378">
        <ele>688.2</ele>
        <time>2011-09-20T12:35:59Z</time>
      </trkpt>
      <trkpt lat="44.37797" lon="3.93768">
        <ele>693.2</ele>
        <time>2011-09-20T12:36:16Z</time>
      </trkpt>
      <trkpt lat="44.37796" lon="3.93755">
        <ele>685.7</ele>
        <time>2011-09-20T12:36:29Z</time>
      </trkpt>
      <trkpt lat="44.37802" lon="3.93748">
        <ele>690.5</ele>
        <time>2011-09-20T12:36:33Z</time>
      </trkpt>
      <trkpt lat="44.37809" lon="3.93739">
        <ele>695.7</ele>
        <time>2011-09-20T12:36:38Z</time>
      </trkpt>
      <trkpt lat="44.37815" lon="3.9373">
        <ele>695.4</ele>
        <time>2011-09-20T12:36:49Z</time>
      </trkpt>
      <trkpt lat="44.3782" lon="3.93723">
        <ele>694.9</ele>
        <time>2011-09-20T12:36:55Z</time>
      </trkpt>
      <trkpt lat="44.37826" lon="3.93713">
        <ele>692.9</ele>
        <time>2011-09-20T12:37:04Z</time>
      </trkpt>
      <trkpt lat="44.37831" lon="3.93706">
        <ele>687.9</ele>
        <time>2011-09-20T12:37:12Z</time>
      </trkpt>
      <trkpt lat="44.37836" lon="3.93697">
        <ele>688</ele>
        <time>2011-09-20T12:37:18Z</time>
      </trkpt>
      <trkpt lat="44.37841" lon="3.93688">
        <ele>694.5</ele>
        <time>2011-09-20T12:37:26Z</time>
      </trkpt>
      <trkpt lat="44.37847" lon="3.9368">
        <ele>697</ele>
        <time>2011-09-20T12:37:38Z</time>
      </trkpt>
      <trkpt lat="44.37854" lon="3.93672">
        <ele>697.2</ele>
        <time>2011-09-20T12:37:46Z</time>
      </trkpt>
      <trkpt lat="44.3786" lon="3.93664">
        <ele>689.9</ele>
        <time>2011-09-20T12:37:52Z</time>
      </trkpt>
      <trkpt lat="44.37865" lon="3.93656">
        <ele>690.4</ele>
        <time>2011-09-20T12:37:59Z</time>
      </trkpt>
      <trkpt lat="44.37873" lon="3.93651">
        <ele>695.7</ele>
        <time>2011-09-20T12:38:08Z</time>
      </trkpt>
      <trkpt lat="44.37879" lon="3.93646">
        <ele>688.2</ele>
        <time>2011-09-20T12:38:18Z</time>
      </trkpt>
      <trkpt lat="44.37887" lon="3.93642">
        <ele>688</ele>
        <time>2011-09-20T12:38:23Z</time>
      </trkpt>
      <trkpt lat="44.37894" lon="3.93636">
        <ele>683</ele>
        <time>2011-09-20T12:38:35Z</time>
      </trkpt>
      <trkpt lat="44.37899" lon="3.93625">
        <ele>689.2</ele>
        <time>2011-09-20T12:38:49Z</time>
      </trkpt>
      <trkpt lat="44.37902" lon="3.93614">
        <ele>689.4</ele>
        <time>2011-09-20T12:38:56Z</time>
      </trkpt>
      <trkpt lat="44.37901" lon="3.93601">
        <ele>689</ele>
        <time>2011-09-20T12:39:05Z</time>
      </trkpt>
      <trkpt lat="44.37895" lon="3.93593">
        <ele>683.9</ele>
        <time>2011-09-20T12:39:14Z</time>
      </trkpt>
      <trkpt lat="44.37887" lon="3.93588">
        <ele>683</ele>
        <time>2011-09-20T12:39:21Z</time>
      </trkpt>
      <trkpt lat="44.37881" lon="3.93579">
        <ele>695.5</ele>
        <time>2011-09-20T12:39:34Z</time>
      </trkpt>
      <trkpt lat="44.37874" lon="3.93572">
        <ele>692.5</ele>
        <time>2011-09-20T12:39:41Z</time>
      </trkpt>
      <trkpt lat="44.37874" lon="3.9356">
        <ele>689</ele>
        <time>2011-09-20T12:39:48Z</time>
      </trkpt>
      <trkpt lat="44.37876" lon="3.93549">
        <ele>685.2</ele>
        <time>2011-09-20T12:39:55Z</time>
      </trkpt>
      <trkpt lat="44.3788" lon="3.9354">
        <ele>686.2</ele>
        <time>2011-09-20T12:39:59Z</time>
      </trkpt>
      <trkpt lat="44.37883" lon="3.93528">
        <ele>689.2</ele>
        <time>2011-09-20T12:40:05Z</time>
      </trkpt>
      <trkpt lat="44.37883" lon="3.93516">
        <ele>708.7</ele>
        <time>2011-09-20T12:40:14Z</time>
      </trkpt>
      <trkpt lat="44.37885" lon="3.93505">
        <ele>725.4</ele>
        <time>2011-09-20T12:40:22Z</time>
      </trkpt>
      <trkpt lat="44.37883" lon="3.93494">
        <ele>738.5</ele>
        <time>2011-09-20T12:40:30Z</time>
      </trkpt>
      <trkpt lat="44.37879" lon="3.93484">
        <ele>722.2</ele>
        <time>2011-09-20T12:40:42Z</time>
      </trkpt>
      <trkpt lat="44.37878" lon="3.93471">
        <ele>704.7</ele>
        <time>2011-09-20T12:40:53Z</time>
      </trkpt>
      <trkpt lat="44.37882" lon="3.93461">
        <ele>705.9</ele>
        <time>2011-09-20T12:40:59Z</time>
      </trkpt>
      <trkpt lat="44.37883" lon="3.93449">
        <ele>715.7</ele>
        <time>2011-09-20T12:41:11Z</time>
      </trkpt>
      <trkpt lat="44.37882" lon="3.93437">
        <ele>708</ele>
        <time>2011-09-20T12:41:25Z</time>
      </trkpt>
      <trkpt lat="44.37873" lon="3.93438">
        <ele>712</ele>
        <time>2011-09-20T12:41:39Z</time>
      </trkpt>
      <trkpt lat="44.37866" lon="3.93442">
        <ele>711</ele>
        <time>2011-09-20T12:41:49Z</time>
      </trkpt>
      <trkpt lat="44.3786" lon="3.93449">
        <ele>713</ele>
        <time>2011-09-20T12:41:55Z</time>
      </trkpt>
      <trkpt lat="44.37853" lon="3.93456">
        <ele>713.5</ele>
        <time>2011-09-20T12:42:05Z</time>
      </trkpt>
      <trkpt lat="44.37845" lon="3.93459">
        <ele>712.2</ele>
        <time>2011-09-20T12:42:19Z</time>
      </trkpt>
      <trkpt lat="44.37836" lon="3.93458">
        <ele>709</ele>
        <time>2011-09-20T12:42:31Z</time>
      </trkpt>
      <trkpt lat="44.37828" lon="3.93462">
        <ele>711.9</ele>
        <time>2011-09-20T12:42:41Z</time>
      </trkpt>
      <trkpt lat="44.3782" lon="3.93465">
        <ele>711.5</ele>
        <time>2011-09-20T12:42:51Z</time>
      </trkpt>
      <trkpt lat="44.37812" lon="3.93469">
        <ele>716</ele>
        <time>2011-09-20T12:43:03Z</time>
      </trkpt>
      <trkpt lat="44.37804" lon="3.9347">
        <ele>713.5</ele>
        <time>2011-09-20T12:43:13Z</time>
      </trkpt>
      <trkpt lat="44.37795" lon="3.93468">
        <ele>712</ele>
        <time>2011-09-20T12:43:24Z</time>
      </trkpt>
      <trkpt lat="44.37788" lon="3.93466">
        <ele>710.9</ele>
        <time>2011-09-20T12:43:33Z</time>
      </trkpt>
      <trkpt lat="44.37779" lon="3.93467">
        <ele>710.7</ele>
        <time>2011-09-20T12:43:41Z</time>
      </trkpt>
      <trkpt lat="44.37772" lon="3.93472">
        <ele>714.5</ele>
        <time>2011-09-20T12:43:51Z</time>
      </trkpt>
      <trkpt lat="44.37764" lon="3.93479">
        <ele>716.5</ele>
        <time>2011-09-20T12:44:02Z</time>
      </trkpt>
      <trkpt lat="44.37757" lon="3.93484">
        <ele>717.5</ele>
        <time>2011-09-20T12:44:12Z</time>
      </trkpt>
      <trkpt lat="44.37748" lon="3.93487">
        <ele>717.7</ele>
        <time>2011-09-20T12:44:25Z</time>
      </trkpt>
      <trkpt lat="44.37742" lon="3.93494">
        <ele>720.4</ele>
        <time>2011-09-20T12:44:32Z</time>
      </trkpt>
      <trkpt lat="44.37735" lon="3.93502">
        <ele>725.7</ele>
        <time>2011-09-20T12:44:40Z</time>
      </trkpt>
      <trkpt lat="44.37728" lon="3.93508">
        <ele>725.2</ele>
        <time>2011-09-20T12:44:53Z</time>
      </trkpt>
      <trkpt lat="44.37721" lon="3.93516">
        <ele>728.2</ele>
        <time>2011-09-20T12:45:03Z</time>
      </trkpt>
      <trkpt lat="44.37713" lon="3.93521">
        <ele>727.2</ele>
        <time>2011-09-20T12:45:14Z</time>
      </trkpt>
      <trkpt lat="44.37705" lon="3.93523">
        <ele>726.5</ele>
        <time>2011-09-20T12:45:24Z</time>
      </trkpt>
      <trkpt lat="44.37698" lon="3.93515">
        <ele>725</ele>
        <time>2011-09-20T12:45:36Z</time>
      </trkpt>
      <trkpt lat="44.37702" lon="3.93504">
        <ele>729.2</ele>
        <time>2011-09-20T12:45:48Z</time>
      </trkpt>
      <trkpt lat="44.37707" lon="3.93495">
        <ele>731.9</ele>
        <time>2011-09-20T12:45:57Z</time>
      </trkpt>
      <trkpt lat="44.37711" lon="3.93484">
        <ele>739.7</ele>
        <time>2011-09-20T12:46:13Z</time>
      </trkpt>
      <trkpt lat="44.37717" lon="3.93476">
        <ele>741.4</ele>
        <time>2011-09-20T12:46:22Z</time>
      </trkpt>
      <trkpt lat="44.37721" lon="3.93466">
        <ele>737.2</ele>
        <time>2011-09-20T12:46:29Z</time>
      </trkpt>
      <trkpt lat="44.37727" lon="3.93457">
        <ele>737.2</ele>
        <time>2011-09-20T12:46:38Z</time>
      </trkpt>
      <trkpt lat="44.37733" lon="3.93449">
        <ele>748.2</ele>
        <time>2011-09-20T12:46:47Z</time>
      </trkpt>
      <trkpt lat="44.37739" lon="3.93442">
        <ele>746.7</ele>
        <time>2011-09-20T12:46:56Z</time>
      </trkpt>
      <trkpt lat="44.37745" lon="3.93434">
        <ele>748.7</ele>
        <time>2011-09-20T12:47:08Z</time>
      </trkpt>
      <trkpt lat="44.3775" lon="3.93425">
        <ele>755</ele>
        <time>2011-09-20T12:47:16Z</time>
      </trkpt>
      <trkpt lat="44.37757" lon="3.93417">
        <ele>748.7</ele>
        <time>2011-09-20T12:47:27Z</time>
      </trkpt>
      <trkpt lat="44.37763" lon="3.9341">
        <ele>744.5</ele>
        <time>2011-09-20T12:47:37Z</time>
      </trkpt>
      <trkpt lat="44.37769" lon="3.93403">
        <ele>741.7</ele>
        <time>2011-09-20T12:47:45Z</time>
      </trkpt>
      <trkpt lat="44.37776" lon="3.93395">
        <ele>740.7</ele>
        <time>2011-09-20T12:47:57Z</time>
      </trkpt>
      <trkpt lat="44.37781" lon="3.93388">
        <ele>742</ele>
        <time>2011-09-20T12:48:03Z</time>
      </trkpt>
      <trkpt lat="44.37789" lon="3.93383">
        <ele>745.4</ele>
        <time>2011-09-20T12:48:14Z</time>
      </trkpt>
      <trkpt lat="44.37796" lon="3.93379">
        <ele>744.5</ele>
        <time>2011-09-20T12:48:24Z</time>
      </trkpt>
      <trkpt lat="44.37803" lon="3.93372">
        <ele>750</ele>
        <time>2011-09-20T12:48:31Z</time>
      </trkpt>
      <trkpt lat="44.37809" lon="3.93368">
        <ele>754.2</ele>
        <time>2011-09-20T12:48:35Z</time>
      </trkpt>
      <trkpt lat="44.37816" lon="3.93361">
        <ele>758.2</ele>
        <time>2011-09-20T12:48:40Z</time>
      </trkpt>
      <trkpt lat="44.37823" lon="3.93355">
        <ele>762.7</ele>
        <time>2011-09-20T12:48:52Z</time>
      </trkpt>
      <trkpt lat="44.37828" lon="3.93346">
        <ele>753</ele>
        <time>2011-09-20T12:49:06Z</time>
      </trkpt>
      <trkpt lat="44.37833" lon="3.93337">
        <ele>747.2</ele>
        <time>2011-09-20T12:49:16Z</time>
      </trkpt>
      <trkpt lat="44.37838" lon="3.93329">
        <ele>745.7</ele>
        <time>2011-09-20T12:49:25Z</time>
      </trkpt>
      <trkpt lat="44.37845" lon="3.93321">
        <ele>749</ele>
        <time>2011-09-20T12:49:34Z</time>
      </trkpt>
      <trkpt lat="44.37852" lon="3.93314">
        <ele>750.9</ele>
        <time>2011-09-20T12:49:42Z</time>
      </trkpt>
      <trkpt lat="44.37861" lon="3.93313">
        <ele>756.5</ele>
        <time>2011-09-20T12:49:53Z</time>
      </trkpt>
      <trkpt lat="44.37868" lon="3.93308">
        <ele>756.9</ele>
        <time>2011-09-20T12:50:00Z</time>
      </trkpt>
      <trkpt lat="44.37875" lon="3.93303">
        <ele>756.2</ele>
        <time>2011-09-20T12:50:06Z</time>
      </trkpt>
      <trkpt lat="44.37882" lon="3.93298">
        <ele>757.9</ele>
        <time>2011-09-20T12:50:14Z</time>
      </trkpt>
      <trkpt lat="44.3789" lon="3.93293">
        <ele>758.2</ele>
        <time>2011-09-20T12:50:25Z</time>
      </trkpt>
      <trkpt lat="44.37897" lon="3.93288">
        <ele>764.9</ele>
        <time>2011-09-20T12:50:32Z</time>
      </trkpt>
      <trkpt lat="44.37903" lon="3.9328">
        <ele>768.9</ele>
        <time>2011-09-20T12:50:38Z</time>
      </trkpt>
      <trkpt lat="44.3791" lon="3.93273">
        <ele>762.9</ele>
        <time>2011-09-20T12:50:50Z</time>
      </trkpt>
      <trkpt lat="44.37918" lon="3.93273">
        <ele>764.2</ele>
        <time>2011-09-20T12:51:00Z</time>
      </trkpt>
      <trkpt lat="44.37926" lon="3.93274">
        <ele>761.7</ele>
        <time>2011-09-20T12:51:07Z</time>
      </trkpt>
      <trkpt lat="44.37934" lon="3.93273">
        <ele>762</ele>
        <time>2011-09-20T12:51:14Z</time>
      </trkpt>
      <trkpt lat="44.37943" lon="3.93273">
        <ele>766.7</ele>
        <time>2011-09-20T12:51:23Z</time>
      </trkpt>
      <trkpt lat="44.37949" lon="3.93267">
        <ele>766.4</ele>
        <time>2011-09-20T12:51:29Z</time>
      </trkpt>
      <trkpt lat="44.37943" lon="3.93258">
        <ele>759.5</ele>
        <time>2011-09-20T12:51:41Z</time>
      </trkpt>
      <trkpt lat="44.37935" lon="3.93258">
        <ele>754.7</ele>
        <time>2011-09-20T12:51:52Z</time>
      </trkpt>
      <trkpt lat="44.37927" lon="3.93259">
        <ele>753.2</ele>
        <time>2011-09-20T12:52:02Z</time>
      </trkpt>
      <trkpt lat="44.37919" lon="3.9326">
        <ele>751.2</ele>
        <time>2011-09-20T12:52:12Z</time>
      </trkpt>
      <trkpt lat="44.3791" lon="3.93261">
        <ele>749.5</ele>
        <time>2011-09-20T12:52:21Z</time>
      </trkpt>
      <trkpt lat="44.37904" lon="3.93269">
        <ele>761.4</ele>
        <time>2011-09-20T12:55:15Z</time>
      </trkpt>
      <trkpt lat="44.37895" lon="3.93273">
        <ele>759.2</ele>
        <time>2011-09-20T12:55:29Z</time>
      </trkpt>
      <trkpt lat="44.37887" lon="3.93275">
        <ele>756.5</ele>
        <time>2011-09-20T12:55:42Z</time>
      </trkpt>
      <trkpt lat="44.37878" lon="3.93277">
        <ele>755.5</ele>
        <time>2011-09-20T12:55:53Z</time>
      </trkpt>
      <trkpt lat="44.3787" lon="3.93278">
        <ele>755.7</ele>
        <time>2011-09-20T12:56:03Z</time>
      </trkpt>
      <trkpt lat="44.37861" lon="3.93279">
        <ele>755.4</ele>
        <time>2011-09-20T12:56:14Z</time>
      </trkpt>
      <trkpt lat="44.37853" lon="3.93281">
        <ele>754.2</ele>
        <time>2011-09-20T12:56:24Z</time>
      </trkpt>
      <trkpt lat="44.37846" lon="3.93286">
        <ele>754.2</ele>
        <time>2011-09-20T12:56:31Z</time>
      </trkpt>
      <trkpt lat="44.3784" lon="3.93293">
        <ele>757.9</ele>
        <time>2011-09-20T12:56:39Z</time>
      </trkpt>
      <trkpt lat="44.37832" lon="3.93297">
        <ele>756.9</ele>
        <time>2011-09-20T12:56:49Z</time>
      </trkpt>
      <trkpt lat="44.37824" lon="3.93301">
        <ele>755.2</ele>
        <time>2011-09-20T12:56:59Z</time>
      </trkpt>
      <trkpt lat="44.37816" lon="3.93306">
        <ele>756.5</ele>
        <time>2011-09-20T12:57:08Z</time>
      </trkpt>
      <trkpt lat="44.37809" lon="3.93314">
        <ele>758</ele>
        <time>2011-09-20T12:57:16Z</time>
      </trkpt>
      <trkpt lat="44.37801" lon="3.93319">
        <ele>758.9</ele>
        <time>2011-09-20T12:57:24Z</time>
      </trkpt>
      <trkpt lat="44.37793" lon="3.9332">
        <ele>757.2</ele>
        <time>2011-09-20T12:57:37Z</time>
      </trkpt>
      <trkpt lat="44.37785" lon="3.93322">
        <ele>756.5</ele>
        <time>2011-09-20T12:57:49Z</time>
      </trkpt>
      <trkpt lat="44.37776" lon="3.93325">
        <ele>755.5</ele>
        <time>2011-09-20T12:57:58Z</time>
      </trkpt>
      <trkpt lat="44.37768" lon="3.93326">
        <ele>755.5</ele>
        <time>2011-09-20T12:58:06Z</time>
      </trkpt>
      <trkpt lat="44.3776" lon="3.93331">
        <ele>758.9</ele>
        <time>2011-09-20T12:58:13Z</time>
      </trkpt>
      <trkpt lat="44.37751" lon="3.9333">
        <ele>761.2</ele>
        <time>2011-09-20T12:58:21Z</time>
      </trkpt>
      <trkpt lat="44.37743" lon="3.93326">
        <ele>760.7</ele>
        <time>2011-09-20T12:58:31Z</time>
      </trkpt>
      <trkpt lat="44.37737" lon="3.93319">
        <ele>766.7</ele>
        <time>2011-09-20T12:58:41Z</time>
      </trkpt>
      <trkpt lat="44.3773" lon="3.93315">
        <ele>768.2</ele>
        <time>2011-09-20T12:58:48Z</time>
      </trkpt>
      <trkpt lat="44.37725" lon="3.93306">
        <ele>768.4</ele>
        <time>2011-09-20T12:58:58Z</time>
      </trkpt>
      <trkpt lat="44.37718" lon="3.93298">
        <ele>764.7</ele>
        <time>2011-09-20T12:59:07Z</time>
      </trkpt>
      <trkpt lat="44.3771" lon="3.93293">
        <ele>764.9</ele>
        <time>2011-09-20T12:59:15Z</time>
      </trkpt>
      <trkpt lat="44.37704" lon="3.93285">
        <ele>763.7</ele>
        <time>2011-09-20T12:59:25Z</time>
      </trkpt>
      <trkpt lat="44.37695" lon="3.93281">
        <ele>762.9</ele>
        <time>2011-09-20T12:59:32Z</time>
      </trkpt>
      <trkpt lat="44.37688" lon="3.93275">
        <ele>764.2</ele>
        <time>2011-09-20T12:59:40Z</time>
      </trkpt>
      <trkpt lat="44.37683" lon="3.93267">
        <ele>765.7</ele>
        <time>2011-09-20T12:59:50Z</time>
      </trkpt>
      <trkpt lat="44.37676" lon="3.93259">
        <ele>766.5</ele>
        <time>2011-09-20T12:59:59Z</time>
      </trkpt>
      <trkpt lat="44.37668" lon="3.93254">
        <ele>768</ele>
        <time>2011-09-20T13:00:06Z</time>
      </trkpt>
      <trkpt lat="44.3766" lon="3.93249">
        <ele>769.7</ele>
        <time>2011-09-20T13:00:13Z</time>
      </trkpt>
      <trkpt lat="44.37652" lon="3.93245">
        <ele>772.2</ele>
        <time>2011-09-20T13:00:24Z</time>
      </trkpt>
      <trkpt lat="44.37645" lon="3.9324">
        <ele>771.4</ele>
        <time>2011-09-20T13:00:32Z</time>
      </trkpt>
      <trkpt lat="44.37638" lon="3.93231">
        <ele>769.2</ele>
        <time>2011-09-20T13:00:43Z</time>
      </trkpt>
      <trkpt lat="44.37633" lon="3.93224">
        <ele>769.7</ele>
        <time>2011-09-20T13:00:56Z</time>
      </trkpt>
      <trkpt lat="44.37625" lon="3.93219">
        <ele>771.2</ele>
        <time>2011-09-20T13:01:03Z</time>
      </trkpt>
      <trkpt lat="44.37618" lon="3.93211">
        <ele>774.7</ele>
        <time>2011-09-20T13:01:12Z</time>
      </trkpt>
      <trkpt lat="44.37611" lon="3.93206">
        <ele>778.9</ele>
        <time>2011-09-20T13:01:20Z</time>
      </trkpt>
      <trkpt lat="44.37603" lon="3.93212">
        <ele>784.7</ele>
        <time>2011-09-20T13:01:37Z</time>
      </trkpt>
      <trkpt lat="44.37602" lon="3.93223">
        <ele>796.4</ele>
        <time>2011-09-20T13:01:45Z</time>
      </trkpt>
      <trkpt lat="44.376" lon="3.93235">
        <ele>811.2</ele>
        <time>2011-09-20T13:02:12Z</time>
      </trkpt>
      <trkpt lat="44.37604" lon="3.93226">
        <ele>809.9</ele>
        <time>2011-09-20T13:03:01Z</time>
      </trkpt>
      <trkpt lat="44.37605" lon="3.93215">
        <ele>803.5</ele>
        <time>2011-09-20T13:03:06Z</time>
      </trkpt>
      <trkpt lat="44.37605" lon="3.93226">
        <ele>799.2</ele>
        <time>2011-09-20T13:04:33Z</time>
      </trkpt>
      <trkpt lat="44.37603" lon="3.93237">
        <ele>800.2</ele>
        <time>2011-09-20T13:04:40Z</time>
      </trkpt>
      <trkpt lat="44.37604" lon="3.93248">
        <ele>803.2</ele>
        <time>2011-09-20T13:04:48Z</time>
      </trkpt>
      <trkpt lat="44.37603" lon="3.93258">
        <ele>801</ele>
        <time>2011-09-20T13:04:54Z</time>
      </trkpt>
      <trkpt lat="44.37602" lon="3.93268">
        <ele>801.7</ele>
        <time>2011-09-20T13:04:59Z</time>
      </trkpt>
      <trkpt lat="44.37601" lon="3.93277">
        <ele>803</ele>
        <time>2011-09-20T13:05:02Z</time>
      </trkpt>
      <trkpt lat="44.37597" lon="3.93288">
        <ele>798.7</ele>
        <time>2011-09-20T13:05:12Z</time>
      </trkpt>
      <trkpt lat="44.37594" lon="3.93299">
        <ele>799.5</ele>
        <time>2011-09-20T13:05:19Z</time>
      </trkpt>
      <trkpt lat="44.3759" lon="3.93309">
        <ele>800.9</ele>
        <time>2011-09-20T13:05:26Z</time>
      </trkpt>
      <trkpt lat="44.37585" lon="3.93318">
        <ele>801.2</ele>
        <time>2011-09-20T13:05:35Z</time>
      </trkpt>
      <trkpt lat="44.37577" lon="3.93323">
        <ele>795.7</ele>
        <time>2011-09-20T13:05:48Z</time>
      </trkpt>
      <trkpt lat="44.37573" lon="3.93334">
        <ele>796.5</ele>
        <time>2011-09-20T13:05:55Z</time>
      </trkpt>
      <trkpt lat="44.37565" lon="3.93336">
        <ele>794.7</ele>
        <time>2011-09-20T13:06:05Z</time>
      </trkpt>
      <trkpt lat="44.37557" lon="3.93337">
        <ele>791.7</ele>
        <time>2011-09-20T13:06:16Z</time>
      </trkpt>
      <trkpt lat="44.37548" lon="3.93338">
        <ele>790.4</ele>
        <time>2011-09-20T13:06:26Z</time>
      </trkpt>
      <trkpt lat="44.37539" lon="3.93336">
        <ele>788.2</ele>
        <time>2011-09-20T13:06:37Z</time>
      </trkpt>
      <trkpt lat="44.37531" lon="3.93335">
        <ele>788.7</ele>
        <time>2011-09-20T13:06:47Z</time>
      </trkpt>
      <trkpt lat="44.37523" lon="3.93339">
        <ele>791.7</ele>
        <time>2011-09-20T13:06:56Z</time>
      </trkpt>
      <trkpt lat="44.37515" lon="3.93342">
        <ele>794.7</ele>
        <time>2011-09-20T13:07:06Z</time>
      </trkpt>
      <trkpt lat="44.37507" lon="3.93348">
        <ele>798.2</ele>
        <time>2011-09-20T13:07:14Z</time>
      </trkpt>
      <trkpt lat="44.375" lon="3.93353">
        <ele>798.7</ele>
        <time>2011-09-20T13:07:22Z</time>
      </trkpt>
      <trkpt lat="44.37492" lon="3.93356">
        <ele>799.2</ele>
        <time>2011-09-20T13:07:32Z</time>
      </trkpt>
      <trkpt lat="44.37485" lon="3.93364">
        <ele>803</ele>
        <time>2011-09-20T13:07:40Z</time>
      </trkpt>
      <trkpt lat="44.37478" lon="3.9337">
        <ele>806.7</ele>
        <time>2011-09-20T13:07:48Z</time>
      </trkpt>
      <trkpt lat="44.37471" lon="3.93377">
        <ele>810.4</ele>
        <time>2011-09-20T13:07:56Z</time>
      </trkpt>
      <trkpt lat="44.37463" lon="3.93382">
        <ele>810.4</ele>
        <time>2011-09-20T13:08:04Z</time>
      </trkpt>
      <trkpt lat="44.37455" lon="3.93381">
        <ele>807.2</ele>
        <time>2011-09-20T13:08:12Z</time>
      </trkpt>
      <trkpt lat="44.37449" lon="3.9339">
        <ele>810.4</ele>
        <time>2011-09-20T13:08:22Z</time>
      </trkpt>
      <trkpt lat="44.37443" lon="3.93398">
        <ele>812.9</ele>
        <time>2011-09-20T13:08:29Z</time>
      </trkpt>
      <trkpt lat="44.37434" lon="3.93401">
        <ele>813</ele>
        <time>2011-09-20T13:08:39Z</time>
      </trkpt>
      <trkpt lat="44.37426" lon="3.93404">
        <ele>812.5</ele>
        <time>2011-09-20T13:08:50Z</time>
      </trkpt>
      <trkpt lat="44.37418" lon="3.934">
        <ele>807</ele>
        <time>2011-09-20T13:09:00Z</time>
      </trkpt>
      <trkpt lat="44.37409" lon="3.93402">
        <ele>809.5</ele>
        <time>2011-09-20T13:09:10Z</time>
      </trkpt>
      <trkpt lat="44.37401" lon="3.93407">
        <ele>814</ele>
        <time>2011-09-20T13:09:20Z</time>
      </trkpt>
      <trkpt lat="44.37395" lon="3.93414">
        <ele>814.2</ele>
        <time>2011-09-20T13:09:28Z</time>
      </trkpt>
      <trkpt lat="44.37389" lon="3.93421">
        <ele>815</ele>
        <time>2011-09-20T13:09:36Z</time>
      </trkpt>
      <trkpt lat="44.37381" lon="3.93421">
        <ele>813.2</ele>
        <time>2011-09-20T13:09:46Z</time>
      </trkpt>
      <trkpt lat="44.37373" lon="3.93425">
        <ele>812.2</ele>
        <time>2011-09-20T13:09:55Z</time>
      </trkpt>
      <trkpt lat="44.37366" lon="3.93431">
        <ele>811.2</ele>
        <time>2011-09-20T13:10:05Z</time>
      </trkpt>
      <trkpt lat="44.37358" lon="3.93433">
        <ele>807</ele>
        <time>2011-09-20T13:10:17Z</time>
      </trkpt>
      <trkpt lat="44.3735" lon="3.93438">
        <ele>804.7</ele>
        <time>2011-09-20T13:10:28Z</time>
      </trkpt>
      <trkpt lat="44.37342" lon="3.93444">
        <ele>803.4</ele>
        <time>2011-09-20T13:10:39Z</time>
      </trkpt>
      <trkpt lat="44.37336" lon="3.93452">
        <ele>806.5</ele>
        <time>2011-09-20T13:10:47Z</time>
      </trkpt>
      <trkpt lat="44.37328" lon="3.93457">
        <ele>806.2</ele>
        <time>2011-09-20T13:10:58Z</time>
      </trkpt>
      <trkpt lat="44.37321" lon="3.93452">
        <ele>801.5</ele>
        <time>2011-09-20T13:11:07Z</time>
      </trkpt>
      <trkpt lat="44.37315" lon="3.93445">
        <ele>798.4</ele>
        <time>2011-09-20T13:11:16Z</time>
      </trkpt>
      <trkpt lat="44.37308" lon="3.93437">
        <ele>799.4</ele>
        <time>2011-09-20T13:11:25Z</time>
      </trkpt>
      <trkpt lat="44.37302" lon="3.93428">
        <ele>801.5</ele>
        <time>2011-09-20T13:11:35Z</time>
      </trkpt>
      <trkpt lat="44.37296" lon="3.93419">
        <ele>803.4</ele>
        <time>2011-09-20T13:11:44Z</time>
      </trkpt>
      <trkpt lat="44.37291" lon="3.9341">
        <ele>807</ele>
        <time>2011-09-20T13:11:54Z</time>
      </trkpt>
      <trkpt lat="44.37286" lon="3.93401">
        <ele>809</ele>
        <time>2011-09-20T13:12:04Z</time>
      </trkpt>
      <trkpt lat="44.37286" lon="3.93389">
        <ele>806</ele>
        <time>2011-09-20T13:12:12Z</time>
      </trkpt>
      <trkpt lat="44.37282" lon="3.93378">
        <ele>805.5</ele>
        <time>2011-09-20T13:12:23Z</time>
      </trkpt>
      <trkpt lat="44.37275" lon="3.9337">
        <ele>804.2</ele>
        <time>2011-09-20T13:12:33Z</time>
      </trkpt>
      <trkpt lat="44.3727" lon="3.93361">
        <ele>804.4</ele>
        <time>2011-09-20T13:12:43Z</time>
      </trkpt>
      <trkpt lat="44.37266" lon="3.93352">
        <ele>805</ele>
        <time>2011-09-20T13:12:53Z</time>
      </trkpt>
      <trkpt lat="44.3726" lon="3.93343">
        <ele>807.7</ele>
        <time>2011-09-20T13:13:03Z</time>
      </trkpt>
      <trkpt lat="44.37254" lon="3.93334">
        <ele>812.5</ele>
        <time>2011-09-20T13:13:12Z</time>
      </trkpt>
      <trkpt lat="44.3725" lon="3.93324">
        <ele>814.7</ele>
        <time>2011-09-20T13:13:22Z</time>
      </trkpt>
      <trkpt lat="44.37245" lon="3.93315">
        <ele>815.9</ele>
        <time>2011-09-20T13:13:30Z</time>
      </trkpt>
      <trkpt lat="44.37244" lon="3.93303">
        <ele>812.5</ele>
        <time>2011-09-20T13:13:38Z</time>
      </trkpt>
      <trkpt lat="44.37241" lon="3.93293">
        <ele>812.2</ele>
        <time>2011-09-20T13:13:47Z</time>
      </trkpt>
      <trkpt lat="44.37235" lon="3.93285">
        <ele>811.5</ele>
        <time>2011-09-20T13:13:57Z</time>
      </trkpt>
      <trkpt lat="44.37226" lon="3.93289">
        <ele>814.4</ele>
        <time>2011-09-20T13:14:16Z</time>
      </trkpt>
      <trkpt lat="44.37218" lon="3.93291">
        <ele>816.2</ele>
        <time>2011-09-20T13:14:29Z</time>
      </trkpt>
      <trkpt lat="44.37212" lon="3.93299">
        <ele>822.2</ele>
        <time>2011-09-20T13:14:35Z</time>
      </trkpt>
      <trkpt lat="44.37204" lon="3.93303">
        <ele>827.2</ele>
        <time>2011-09-20T13:14:42Z</time>
      </trkpt>
      <trkpt lat="44.37199" lon="3.93311">
        <ele>833</ele>
        <time>2011-09-20T13:14:51Z</time>
      </trkpt>
      <trkpt lat="44.37195" lon="3.93322">
        <ele>838.5</ele>
        <time>2011-09-20T13:14:58Z</time>
      </trkpt>
      <trkpt lat="44.37192" lon="3.93333">
        <ele>841</ele>
        <time>2011-09-20T13:15:04Z</time>
      </trkpt>
      <trkpt lat="44.37187" lon="3.93343">
        <ele>842.2</ele>
        <time>2011-09-20T13:15:11Z</time>
      </trkpt>
      <trkpt lat="44.3718" lon="3.9335">
        <ele>839.5</ele>
        <time>2011-09-20T13:15:22Z</time>
      </trkpt>
      <trkpt lat="44.37173" lon="3.93357">
        <ele>836.7</ele>
        <time>2011-09-20T13:15:35Z</time>
      </trkpt>
      <trkpt lat="44.37168" lon="3.93366">
        <ele>838.5</ele>
        <time>2011-09-20T13:15:46Z</time>
      </trkpt>
      <trkpt lat="44.37161" lon="3.93372">
        <ele>832.4</ele>
        <time>2011-09-20T13:16:55Z</time>
      </trkpt>
      <trkpt lat="44.37157" lon="3.93382">
        <ele>834.7</ele>
        <time>2011-09-20T13:17:03Z</time>
      </trkpt>
      <trkpt lat="44.37153" lon="3.93371">
        <ele>827.7</ele>
        <time>2011-09-20T13:17:16Z</time>
      </trkpt>
      <trkpt lat="44.37146" lon="3.93379">
        <ele>825.2</ele>
        <time>2011-09-20T13:18:00Z</time>
      </trkpt>
      <trkpt lat="44.37142" lon="3.93389">
        <ele>827.5</ele>
        <time>2011-09-20T13:18:11Z</time>
      </trkpt>
      <trkpt lat="44.37137" lon="3.93399">
        <ele>827.5</ele>
        <time>2011-09-20T13:18:25Z</time>
      </trkpt>
      <trkpt lat="44.37132" lon="3.93408">
        <ele>826.5</ele>
        <time>2011-09-20T13:18:38Z</time>
      </trkpt>
      <trkpt lat="44.37128" lon="3.93419">
        <ele>828.7</ele>
        <time>2011-09-20T13:18:46Z</time>
      </trkpt>
      <trkpt lat="44.37125" lon="3.93429">
        <ele>832.2</ele>
        <time>2011-09-20T13:18:50Z</time>
      </trkpt>
      <trkpt lat="44.37121" lon="3.93438">
        <ele>834.5</ele>
        <time>2011-09-20T13:18:57Z</time>
      </trkpt>
      <trkpt lat="44.37115" lon="3.93447">
        <ele>836</ele>
        <time>2011-09-20T13:19:07Z</time>
      </trkpt>
      <trkpt lat="44.37108" lon="3.93454">
        <ele>835.7</ele>
        <time>2011-09-20T13:19:19Z</time>
      </trkpt>
      <trkpt lat="44.37103" lon="3.93458">
        <ele>834</ele>
        <time>2011-09-20T13:19:29Z</time>
      </trkpt>
      <trkpt lat="44.37099" lon="3.93469">
        <ele>838.2</ele>
        <time>2011-09-20T13:19:36Z</time>
      </trkpt>
      <trkpt lat="44.37092" lon="3.93477">
        <ele>838.5</ele>
        <time>2011-09-20T13:19:48Z</time>
      </trkpt>
      <trkpt lat="44.37085" lon="3.93484">
        <ele>837.7</ele>
        <time>2011-09-20T13:20:01Z</time>
      </trkpt>
      <trkpt lat="44.37079" lon="3.93492">
        <ele>837.4</ele>
        <time>2011-09-20T13:20:15Z</time>
      </trkpt>
      <trkpt lat="44.37075" lon="3.93503">
        <ele>841.2</ele>
        <time>2011-09-20T13:20:23Z</time>
      </trkpt>
      <trkpt lat="44.37073" lon="3.93514">
        <ele>846.5</ele>
        <time>2011-09-20T13:20:30Z</time>
      </trkpt>
      <trkpt lat="44.37071" lon="3.93502">
        <ele>841.5</ele>
        <time>2011-09-20T13:21:15Z</time>
      </trkpt>
      <trkpt lat="44.37067" lon="3.93492">
        <ele>840.2</ele>
        <time>2011-09-20T13:21:37Z</time>
      </trkpt>
      <trkpt lat="44.3706" lon="3.935">
        <ele>843.7</ele>
        <time>2011-09-20T13:22:40Z</time>
      </trkpt>
      <trkpt lat="44.37064" lon="3.93511">
        <ele>831.5</ele>
        <time>2011-09-20T13:23:07Z</time>
      </trkpt>
      <trkpt lat="44.37072" lon="3.93514">
        <ele>843.5</ele>
        <time>2011-09-20T13:23:17Z</time>
      </trkpt>
      <trkpt lat="44.3708" lon="3.93508">
        <ele>861</ele>
        <time>2011-09-20T13:23:27Z</time>
      </trkpt>
      <trkpt lat="44.37071" lon="3.93507">
        <ele>836.4</ele>
        <time>2011-09-20T13:24:07Z</time>
      </trkpt>
      <trkpt lat="44.37064" lon="3.93501">
        <ele>831.2</ele>
        <time>2011-09-20T13:24:14Z</time>
      </trkpt>
      <trkpt lat="44.37061" lon="3.93489">
        <ele>843.4</ele>
        <time>2011-09-20T13:24:39Z</time>
      </trkpt>
      <trkpt lat="44.37059" lon="3.93478">
        <ele>851</ele>
        <time>2011-09-20T13:24:53Z</time>
      </trkpt>
      <trkpt lat="44.3705" lon="3.93475">
        <ele>864.4</ele>
        <time>2011-09-20T13:25:41Z</time>
      </trkpt>
      <trkpt lat="44.37052" lon="3.93487">
        <ele>840.5</ele>
        <time>2011-09-20T13:26:11Z</time>
      </trkpt>
      <trkpt lat="44.37045" lon="3.93495">
        <ele>837.2</ele>
        <time>2011-09-20T13:26:37Z</time>
      </trkpt>
      <trkpt lat="44.37036" lon="3.93493">
        <ele>836.2</ele>
        <time>2011-09-20T13:26:47Z</time>
      </trkpt>
      <trkpt lat="44.37028" lon="3.93489">
        <ele>836.5</ele>
        <time>2011-09-20T13:26:56Z</time>
      </trkpt>
      <trkpt lat="44.37022" lon="3.9348">
        <ele>837</ele>
        <time>2011-09-20T13:27:07Z</time>
      </trkpt>
      <trkpt lat="44.37015" lon="3.93473">
        <ele>835.7</ele>
        <time>2011-09-20T13:27:18Z</time>
      </trkpt>
      <trkpt lat="44.37007" lon="3.93469">
        <ele>836.5</ele>
        <time>2011-09-20T13:27:28Z</time>
      </trkpt>
      <trkpt lat="44.36998" lon="3.93468">
        <ele>839.5</ele>
        <time>2011-09-20T13:27:37Z</time>
      </trkpt>
      <trkpt lat="44.36989" lon="3.93469">
        <ele>841</ele>
        <time>2011-09-20T13:27:50Z</time>
      </trkpt>
      <trkpt lat="44.36982" lon="3.93464">
        <ele>839.2</ele>
        <time>2011-09-20T13:28:04Z</time>
      </trkpt>
      <trkpt lat="44.36979" lon="3.93452">
        <ele>841.9</ele>
        <time>2011-09-20T13:28:21Z</time>
      </trkpt>
      <trkpt lat="44.3697" lon="3.93455">
        <ele>844.7</ele>
        <time>2011-09-20T13:29:24Z</time>
      </trkpt>
      <trkpt lat="44.36962" lon="3.93454">
        <ele>838.9</ele>
        <time>2011-09-20T13:29:45Z</time>
      </trkpt>
      <trkpt lat="44.36954" lon="3.93449">
        <ele>836.2</ele>
        <time>2011-09-20T13:29:56Z</time>
      </trkpt>
      <trkpt lat="44.36947" lon="3.93443">
        <ele>836.5</ele>
        <time>2011-09-20T13:30:05Z</time>
      </trkpt>
      <trkpt lat="44.36939" lon="3.93437">
        <ele>837.5</ele>
        <time>2011-09-20T13:30:14Z</time>
      </trkpt>
      <trkpt lat="44.36932" lon="3.93433">
        <ele>838.9</ele>
        <time>2011-09-20T13:30:21Z</time>
      </trkpt>
      <trkpt lat="44.36923" lon="3.93433">
        <ele>839.7</ele>
        <time>2011-09-20T13:30:30Z</time>
      </trkpt>
      <trkpt lat="44.36914" lon="3.93434">
        <ele>840.7</ele>
        <time>2011-09-20T13:30:39Z</time>
      </trkpt>
      <trkpt lat="44.36906" lon="3.93431">
        <ele>842.5</ele>
        <time>2011-09-20T13:30:49Z</time>
      </trkpt>
      <trkpt lat="44.36898" lon="3.93427">
        <ele>844.5</ele>
        <time>2011-09-20T13:30:58Z</time>
      </trkpt>
      <trkpt lat="44.3689" lon="3.93421">
        <ele>843.5</ele>
        <time>2011-09-20T13:31:08Z</time>
      </trkpt>
      <trkpt lat="44.36883" lon="3.93417">
        <ele>844.2</ele>
        <time>2011-09-20T13:31:17Z</time>
      </trkpt>
      <trkpt lat="44.36874" lon="3.93412">
        <ele>844</ele>
        <time>2011-09-20T13:31:26Z</time>
      </trkpt>
      <trkpt lat="44.36867" lon="3.93408">
        <ele>840.2</ele>
        <time>2011-09-20T13:31:36Z</time>
      </trkpt>
      <trkpt lat="44.36859" lon="3.93403">
        <ele>839.7</ele>
        <time>2011-09-20T13:31:46Z</time>
      </trkpt>
      <trkpt lat="44.3685" lon="3.93406">
        <ele>854.5</ele>
        <time>2011-09-20T13:32:17Z</time>
      </trkpt>
      <trkpt lat="44.36848" lon="3.93418">
        <ele>859.7</ele>
        <time>2011-09-20T13:32:55Z</time>
      </trkpt>
      <trkpt lat="44.36839" lon="3.93419">
        <ele>856.5</ele>
        <time>2011-09-20T13:34:15Z</time>
      </trkpt>
      <trkpt lat="44.36847" lon="3.93425">
        <ele>867.9</ele>
        <time>2011-09-20T13:34:31Z</time>
      </trkpt>
      <trkpt lat="44.3685" lon="3.93414">
        <ele>868.5</ele>
        <time>2011-09-20T13:34:46Z</time>
      </trkpt>
      <trkpt lat="44.36842" lon="3.9341">
        <ele>855.4</ele>
        <time>2011-09-20T13:35:31Z</time>
      </trkpt>
      <trkpt lat="44.36836" lon="3.93402">
        <ele>853.2</ele>
        <time>2011-09-20T13:35:46Z</time>
      </trkpt>
      <trkpt lat="44.36828" lon="3.93397">
        <ele>845.4</ele>
        <time>2011-09-20T13:35:58Z</time>
      </trkpt>
      <trkpt lat="44.3682" lon="3.93397">
        <ele>845</ele>
        <time>2011-09-20T13:36:08Z</time>
      </trkpt>
      <trkpt lat="44.36811" lon="3.93396">
        <ele>848</ele>
        <time>2011-09-20T13:36:19Z</time>
      </trkpt>
      <trkpt lat="44.36802" lon="3.93395">
        <ele>847.2</ele>
        <time>2011-09-20T13:36:32Z</time>
      </trkpt>
      <trkpt lat="44.36794" lon="3.93393">
        <ele>844.7</ele>
        <time>2011-09-20T13:36:42Z</time>
      </trkpt>
      <trkpt lat="44.36787" lon="3.93387">
        <ele>844</ele>
        <time>2011-09-20T13:36:50Z</time>
      </trkpt>
      <trkpt lat="44.36778" lon="3.93385">
        <ele>840</ele>
        <time>2011-09-20T13:37:04Z</time>
      </trkpt>
      <trkpt lat="44.3677" lon="3.93382">
        <ele>839.4</ele>
        <time>2011-09-20T13:37:15Z</time>
      </trkpt>
      <trkpt lat="44.36762" lon="3.93385">
        <ele>840.7</ele>
        <time>2011-09-20T13:37:24Z</time>
      </trkpt>
      <trkpt lat="44.36755" lon="3.93391">
        <ele>845</ele>
        <time>2011-09-20T13:37:33Z</time>
      </trkpt>
      <trkpt lat="44.36746" lon="3.93394">
        <ele>843.9</ele>
        <time>2011-09-20T13:37:44Z</time>
      </trkpt>
      <trkpt lat="44.36739" lon="3.93401">
        <ele>837.5</ele>
        <time>2011-09-20T13:38:05Z</time>
      </trkpt>
      <trkpt lat="44.36732" lon="3.93406">
        <ele>835</ele>
        <time>2011-09-20T13:38:15Z</time>
      </trkpt>
      <trkpt lat="44.36723" lon="3.93407">
        <ele>835.2</ele>
        <time>2011-09-20T13:38:22Z</time>
      </trkpt>
      <trkpt lat="44.36715" lon="3.9341">
        <ele>836.2</ele>
        <time>2011-09-20T13:38:30Z</time>
      </trkpt>
      <trkpt lat="44.36707" lon="3.93412">
        <ele>835.2</ele>
        <time>2011-09-20T13:38:39Z</time>
      </trkpt>
      <trkpt lat="44.36698" lon="3.93409">
        <ele>833.2</ele>
        <time>2011-09-20T13:38:51Z</time>
      </trkpt>
      <trkpt lat="44.36689" lon="3.93408">
        <ele>833.7</ele>
        <time>2011-09-20T13:39:00Z</time>
      </trkpt>
      <trkpt lat="44.36681" lon="3.93408">
        <ele>830.9</ele>
        <time>2011-09-20T13:39:10Z</time>
      </trkpt>
      <trkpt lat="44.36673" lon="3.93408">
        <ele>831.5</ele>
        <time>2011-09-20T13:39:18Z</time>
      </trkpt>
      <trkpt lat="44.36665" lon="3.93409">
        <ele>831.7</ele>
        <time>2011-09-20T13:39:25Z</time>
      </trkpt>
      <trkpt lat="44.36657" lon="3.93412">
        <ele>830.2</ele>
        <time>2011-09-20T13:39:35Z</time>
      </trkpt>
      <trkpt lat="44.36649" lon="3.93413">
        <ele>829.2</ele>
        <time>2011-09-20T13:39:44Z</time>
      </trkpt>
      <trkpt lat="44.36641" lon="3.93419">
        <ele>833</ele>
        <time>2011-09-20T13:39:49Z</time>
      </trkpt>
      <trkpt lat="44.36633" lon="3.93421">
        <ele>832</ele>
        <time>2011-09-20T13:39:57Z</time>
      </trkpt>
      <trkpt lat="44.36624" lon="3.9342">
        <ele>828.9</ele>
        <time>2011-09-20T13:40:08Z</time>
      </trkpt>
      <trkpt lat="44.36617" lon="3.93426">
        <ele>832.5</ele>
        <time>2011-09-20T13:40:15Z</time>
      </trkpt>
      <trkpt lat="44.36609" lon="3.93431">
        <ele>836</ele>
        <time>2011-09-20T13:40:22Z</time>
      </trkpt>
      <trkpt lat="44.366" lon="3.93428">
        <ele>833.4</ele>
        <time>2011-09-20T13:40:30Z</time>
      </trkpt>
      <trkpt lat="44.36593" lon="3.93427">
        <ele>828.7</ele>
        <time>2011-09-20T13:40:43Z</time>
      </trkpt>
      <trkpt lat="44.36585" lon="3.93426">
        <ele>829.5</ele>
        <time>2011-09-20T13:40:51Z</time>
      </trkpt>
      <trkpt lat="44.36576" lon="3.93429">
        <ele>832.7</ele>
        <time>2011-09-20T13:40:58Z</time>
      </trkpt>
      <trkpt lat="44.36568" lon="3.93425">
        <ele>832.7</ele>
        <time>2011-09-20T13:41:06Z</time>
      </trkpt>
      <trkpt lat="44.3656" lon="3.93425">
        <ele>832.9</ele>
        <time>2011-09-20T13:41:16Z</time>
      </trkpt>
      <trkpt lat="44.36551" lon="3.93427">
        <ele>832.5</ele>
        <time>2011-09-20T13:41:27Z</time>
      </trkpt>
      <trkpt lat="44.36543" lon="3.93427">
        <ele>832</ele>
        <time>2011-09-20T13:41:36Z</time>
      </trkpt>
      <trkpt lat="44.36534" lon="3.93429">
        <ele>826.2</ele>
        <time>2011-09-20T13:41:56Z</time>
      </trkpt>
      <trkpt lat="44.36526" lon="3.93429">
        <ele>827.7</ele>
        <time>2011-09-20T13:42:07Z</time>
      </trkpt>
      <trkpt lat="44.36518" lon="3.93427">
        <ele>822.7</ele>
        <time>2011-09-20T13:42:18Z</time>
      </trkpt>
      <trkpt lat="44.3651" lon="3.9343">
        <ele>823.4</ele>
        <time>2011-09-20T13:42:26Z</time>
      </trkpt>
      <trkpt lat="44.36502" lon="3.93432">
        <ele>828.9</ele>
        <time>2011-09-20T13:42:32Z</time>
      </trkpt>
      <trkpt lat="44.36493" lon="3.9343">
        <ele>832.2</ele>
        <time>2011-09-20T13:42:39Z</time>
      </trkpt>
      <trkpt lat="44.36485" lon="3.93428">
        <ele>825.7</ele>
        <time>2011-09-20T13:43:10Z</time>
      </trkpt>
      <trkpt lat="44.36477" lon="3.93432">
        <ele>825.2</ele>
        <time>2011-09-20T13:43:17Z</time>
      </trkpt>
      <trkpt lat="44.36468" lon="3.93434">
        <ele>823.9</ele>
        <time>2011-09-20T13:43:27Z</time>
      </trkpt>
      <trkpt lat="44.36461" lon="3.93436">
        <ele>824.9</ele>
        <time>2011-09-20T13:43:33Z</time>
      </trkpt>
      <trkpt lat="44.36452" lon="3.93437">
        <ele>825.2</ele>
        <time>2011-09-20T13:43:42Z</time>
      </trkpt>
      <trkpt lat="44.36444" lon="3.93442">
        <ele>826.5</ele>
        <time>2011-09-20T13:43:50Z</time>
      </trkpt>
      <trkpt lat="44.36436" lon="3.93447">
        <ele>824.5</ele>
        <time>2011-09-20T13:44:00Z</time>
      </trkpt>
      <trkpt lat="44.36428" lon="3.93449">
        <ele>822.5</ele>
        <time>2011-09-20T13:44:13Z</time>
      </trkpt>
      <trkpt lat="44.3642" lon="3.93448">
        <ele>821.4</ele>
        <time>2011-09-20T13:44:19Z</time>
      </trkpt>
      <trkpt lat="44.36411" lon="3.93451">
        <ele>820.9</ele>
        <time>2011-09-20T13:44:27Z</time>
      </trkpt>
      <trkpt lat="44.36403" lon="3.93453">
        <ele>818.5</ele>
        <time>2011-09-20T13:44:37Z</time>
      </trkpt>
      <trkpt lat="44.36394" lon="3.9345">
        <ele>819.9</ele>
        <time>2011-09-20T13:44:47Z</time>
      </trkpt>
      <trkpt lat="44.36386" lon="3.93446">
        <ele>818</ele>
        <time>2011-09-20T13:44:57Z</time>
      </trkpt>
      <trkpt lat="44.36379" lon="3.93439">
        <ele>816.7</ele>
        <time>2011-09-20T13:45:07Z</time>
      </trkpt>
      <trkpt lat="44.36371" lon="3.93434">
        <ele>818.2</ele>
        <time>2011-09-20T13:45:16Z</time>
      </trkpt>
      <trkpt lat="44.36363" lon="3.93431">
        <ele>814.7</ele>
        <time>2011-09-20T13:45:25Z</time>
      </trkpt>
      <trkpt lat="44.36354" lon="3.93429">
        <ele>820.9</ele>
        <time>2011-09-20T13:45:35Z</time>
      </trkpt>
      <trkpt lat="44.36345" lon="3.93431">
        <ele>819.4</ele>
        <time>2011-09-20T13:45:46Z</time>
      </trkpt>
      <trkpt lat="44.36339" lon="3.93436">
        <ele>820.7</ele>
        <time>2011-09-20T13:45:52Z</time>
      </trkpt>
      <trkpt lat="44.36331" lon="3.9344">
        <ele>814.5</ele>
        <time>2011-09-20T13:46:11Z</time>
      </trkpt>
      <trkpt lat="44.36322" lon="3.9344">
        <ele>816.5</ele>
        <time>2011-09-20T13:46:31Z</time>
      </trkpt>
      <trkpt lat="44.36313" lon="3.93435">
        <ele>816.2</ele>
        <time>2011-09-20T13:46:45Z</time>
      </trkpt>
      <trkpt lat="44.36306" lon="3.93429">
        <ele>810.9</ele>
        <time>2011-09-20T13:46:56Z</time>
      </trkpt>
      <trkpt lat="44.36298" lon="3.93422">
        <ele>810</ele>
        <time>2011-09-20T13:47:08Z</time>
      </trkpt>
      <trkpt lat="44.36291" lon="3.93422">
        <ele>808.7</ele>
        <time>2011-09-20T13:47:18Z</time>
      </trkpt>
      <trkpt lat="44.36283" lon="3.93427">
        <ele>812.2</ele>
        <time>2011-09-20T13:47:25Z</time>
      </trkpt>
      <trkpt lat="44.36277" lon="3.93436">
        <ele>813.2</ele>
        <time>2011-09-20T13:47:34Z</time>
      </trkpt>
      <trkpt lat="44.3627" lon="3.93441">
        <ele>810.5</ele>
        <time>2011-09-20T13:47:43Z</time>
      </trkpt>
      <trkpt lat="44.36265" lon="3.9345">
        <ele>816.7</ele>
        <time>2011-09-20T13:47:58Z</time>
      </trkpt>
      <trkpt lat="44.36257" lon="3.93446">
        <ele>796.2</ele>
        <time>2011-09-20T13:48:18Z</time>
      </trkpt>
      <trkpt lat="44.36249" lon="3.93447">
        <ele>801</ele>
        <time>2011-09-20T13:48:29Z</time>
      </trkpt>
      <trkpt lat="44.36241" lon="3.93448">
        <ele>804</ele>
        <time>2011-09-20T13:48:34Z</time>
      </trkpt>
      <trkpt lat="44.36235" lon="3.93454">
        <ele>808.4</ele>
        <time>2011-09-20T13:48:40Z</time>
      </trkpt>
      <trkpt lat="44.36228" lon="3.9346">
        <ele>811</ele>
        <time>2011-09-20T13:48:45Z</time>
      </trkpt>
      <trkpt lat="44.3622" lon="3.93464">
        <ele>809.5</ele>
        <time>2011-09-20T13:48:55Z</time>
      </trkpt>
      <trkpt lat="44.36212" lon="3.93469">
        <ele>806</ele>
        <time>2011-09-20T13:49:05Z</time>
      </trkpt>
      <trkpt lat="44.36205" lon="3.93475">
        <ele>807.7</ele>
        <time>2011-09-20T13:49:14Z</time>
      </trkpt>
      <trkpt lat="44.36196" lon="3.93475">
        <ele>806</ele>
        <time>2011-09-20T13:49:25Z</time>
      </trkpt>
      <trkpt lat="44.36188" lon="3.93474">
        <ele>804.2</ele>
        <time>2011-09-20T13:49:33Z</time>
      </trkpt>
      <trkpt lat="44.3618" lon="3.93472">
        <ele>801.2</ele>
        <time>2011-09-20T13:49:42Z</time>
      </trkpt>
      <trkpt lat="44.36172" lon="3.93469">
        <ele>805</ele>
        <time>2011-09-20T13:49:52Z</time>
      </trkpt>
      <trkpt lat="44.36164" lon="3.93467">
        <ele>825.5</ele>
        <time>2011-09-20T13:50:09Z</time>
      </trkpt>
      <trkpt lat="44.3617" lon="3.93458">
        <ele>804.2</ele>
        <time>2011-09-20T13:51:34Z</time>
      </trkpt>
      <trkpt lat="44.36173" lon="3.93447">
        <ele>805.2</ele>
        <time>2011-09-20T13:52:07Z</time>
      </trkpt>
      <trkpt lat="44.36171" lon="3.93435">
        <ele>809.7</ele>
        <time>2011-09-20T13:52:26Z</time>
      </trkpt>
      <trkpt lat="44.36171" lon="3.93423">
        <ele>814.5</ele>
        <time>2011-09-20T13:52:45Z</time>
      </trkpt>
      <trkpt lat="44.36174" lon="3.93412">
        <ele>804</ele>
        <time>2011-09-20T13:52:57Z</time>
      </trkpt>
      <trkpt lat="44.36174" lon="3.934">
        <ele>804.2</ele>
        <time>2011-09-20T13:53:14Z</time>
      </trkpt>
      <trkpt lat="44.36174" lon="3.93388">
        <ele>813.5</ele>
        <time>2011-09-20T13:53:27Z</time>
      </trkpt>
      <trkpt lat="44.36176" lon="3.93377">
        <ele>804.5</ele>
        <time>2011-09-20T13:53:41Z</time>
      </trkpt>
      <trkpt lat="44.36182" lon="3.93369">
        <ele>811.7</ele>
        <time>2011-09-20T13:53:53Z</time>
      </trkpt>
      <trkpt lat="44.36188" lon="3.93361">
        <ele>810.7</ele>
        <time>2011-09-20T13:54:12Z</time>
      </trkpt>
      <trkpt lat="44.36192" lon="3.93349">
        <ele>816.7</ele>
        <time>2011-09-20T13:54:28Z</time>
      </trkpt>
      <trkpt lat="44.36194" lon="3.93361">
        <ele>828.2</ele>
        <time>2011-09-20T13:54:56Z</time>
      </trkpt>
      <trkpt lat="44.36194" lon="3.93373">
        <ele>824.2</ele>
        <time>2011-09-20T13:55:18Z</time>
      </trkpt>
      <trkpt lat="44.362" lon="3.93381">
        <ele>819.7</ele>
        <time>2011-09-20T13:55:32Z</time>
      </trkpt>
      <trkpt lat="44.36208" lon="3.93375">
        <ele>824.5</ele>
        <time>2011-09-20T13:55:48Z</time>
      </trkpt>
      <trkpt lat="44.36211" lon="3.93363">
        <ele>829.9</ele>
        <time>2011-09-20T13:56:04Z</time>
      </trkpt>
      <trkpt lat="44.36217" lon="3.93356">
        <ele>832.9</ele>
        <time>2011-09-20T13:56:18Z</time>
      </trkpt>
      <trkpt lat="44.36225" lon="3.93349">
        <ele>834.7</ele>
        <time>2011-09-20T13:56:32Z</time>
      </trkpt>
      <trkpt lat="44.36228" lon="3.93338">
        <ele>831.2</ele>
        <time>2011-09-20T13:56:46Z</time>
      </trkpt>
      <trkpt lat="44.36237" lon="3.93341">
        <ele>830.7</ele>
        <time>2011-09-20T13:57:03Z</time>
      </trkpt>
      <trkpt lat="44.36237" lon="3.93354">
        <ele>837.5</ele>
        <time>2011-09-20T13:57:14Z</time>
      </trkpt>
      <trkpt lat="44.36245" lon="3.93352">
        <ele>848.4</ele>
        <time>2011-09-20T13:57:43Z</time>
      </trkpt>
      <trkpt lat="44.36251" lon="3.93342">
        <ele>841.4</ele>
        <time>2011-09-20T13:57:52Z</time>
      </trkpt>
      <trkpt lat="44.36255" lon="3.93334">
        <ele>839</ele>
        <time>2011-09-20T13:58:01Z</time>
      </trkpt>
      <trkpt lat="44.36262" lon="3.93326">
        <ele>842.5</ele>
        <time>2011-09-20T13:58:14Z</time>
      </trkpt>
      <trkpt lat="44.36269" lon="3.93321">
        <ele>838</ele>
        <time>2011-09-20T13:58:31Z</time>
      </trkpt>
      <trkpt lat="44.36278" lon="3.93324">
        <ele>848.2</ele>
        <time>2011-09-20T13:58:45Z</time>
      </trkpt>
      <trkpt lat="44.36282" lon="3.93312">
        <ele>840</ele>
        <time>2011-09-20T13:59:00Z</time>
      </trkpt>
      <trkpt lat="44.36277" lon="3.93304">
        <ele>841.2</ele>
        <time>2011-09-20T13:59:11Z</time>
      </trkpt>
      <trkpt lat="44.36273" lon="3.93294">
        <ele>848.7</ele>
        <time>2011-09-20T13:59:30Z</time>
      </trkpt>
      <trkpt lat="44.36278" lon="3.93285">
        <ele>848.7</ele>
        <time>2011-09-20T13:59:49Z</time>
      </trkpt>
      <trkpt lat="44.36286" lon="3.9328">
        <ele>848.4</ele>
        <time>2011-09-20T14:00:06Z</time>
      </trkpt>
      <trkpt lat="44.36295" lon="3.93277">
        <ele>854.9</ele>
        <time>2011-09-20T14:00:25Z</time>
      </trkpt>
      <trkpt lat="44.36287" lon="3.93274">
        <ele>863</ele>
        <time>2011-09-20T14:02:18Z</time>
      </trkpt>
      <trkpt lat="44.36296" lon="3.93278">
        <ele>861</ele>
        <time>2011-09-20T14:02:42Z</time>
      </trkpt>
      <trkpt lat="44.36301" lon="3.93268">
        <ele>858</ele>
        <time>2011-09-20T14:03:48Z</time>
      </trkpt>
      <trkpt lat="44.36304" lon="3.93257">
        <ele>854.9</ele>
        <time>2011-09-20T14:04:02Z</time>
      </trkpt>
      <trkpt lat="44.3631" lon="3.93248">
        <ele>856.7</ele>
        <time>2011-09-20T14:04:16Z</time>
      </trkpt>
      <trkpt lat="44.36319" lon="3.93248">
        <ele>861.4</ele>
        <time>2011-09-20T14:04:54Z</time>
      </trkpt>
      <trkpt lat="44.36327" lon="3.93244">
        <ele>864.5</ele>
        <time>2011-09-20T14:05:13Z</time>
      </trkpt>
      <trkpt lat="44.36335" lon="3.93238">
        <ele>864.2</ele>
        <time>2011-09-20T14:05:28Z</time>
      </trkpt>
      <trkpt lat="44.36343" lon="3.93233">
        <ele>872</ele>
        <time>2011-09-20T14:05:42Z</time>
      </trkpt>
      <trkpt lat="44.36351" lon="3.93235">
        <ele>879</ele>
        <time>2011-09-20T14:06:01Z</time>
      </trkpt>
      <trkpt lat="44.36357" lon="3.93227">
        <ele>872.5</ele>
        <time>2011-09-20T14:06:15Z</time>
      </trkpt>
      <trkpt lat="44.36366" lon="3.93225">
        <ele>877.2</ele>
        <time>2011-09-20T14:06:38Z</time>
      </trkpt>
      <trkpt lat="44.36373" lon="3.93232">
        <ele>879.5</ele>
        <time>2011-09-20T14:06:53Z</time>
      </trkpt>
      <trkpt lat="44.36382" lon="3.93231">
        <ele>878.9</ele>
        <time>2011-09-20T14:07:07Z</time>
      </trkpt>
      <trkpt lat="44.36389" lon="3.93223">
        <ele>870.9</ele>
        <time>2011-09-20T14:07:25Z</time>
      </trkpt>
      <trkpt lat="44.36389" lon="3.9321">
        <ele>878</ele>
        <time>2011-09-20T14:07:44Z</time>
      </trkpt>
      <trkpt lat="44.36388" lon="3.93198">
        <ele>883</ele>
        <time>2011-09-20T14:08:00Z</time>
      </trkpt>
      <trkpt lat="44.36391" lon="3.93187">
        <ele>890</ele>
        <time>2011-09-20T14:08:19Z</time>
      </trkpt>
      <trkpt lat="44.36396" lon="3.93177">
        <ele>887.7</ele>
        <time>2011-09-20T14:08:41Z</time>
      </trkpt>
      <trkpt lat="44.36397" lon="3.93165">
        <ele>889</ele>
        <time>2011-09-20T14:08:59Z</time>
      </trkpt>
      <trkpt lat="44.36396" lon="3.93152">
        <ele>892</ele>
        <time>2011-09-20T14:09:17Z</time>
      </trkpt>
      <trkpt lat="44.36397" lon="3.9314">
        <ele>891.2</ele>
        <time>2011-09-20T14:09:40Z</time>
      </trkpt>
      <trkpt lat="44.36398" lon="3.93128">
        <ele>892.4</ele>
        <time>2011-09-20T14:09:58Z</time>
      </trkpt>
      <trkpt lat="44.364" lon="3.93116">
        <ele>896.7</ele>
        <time>2011-09-20T14:10:20Z</time>
      </trkpt>
      <trkpt lat="44.36403" lon="3.93105">
        <ele>898.7</ele>
        <time>2011-09-20T14:10:41Z</time>
      </trkpt>
      <trkpt lat="44.36408" lon="3.93096">
        <ele>902.7</ele>
        <time>2011-09-20T14:14:56Z</time>
      </trkpt>
      <trkpt lat="44.36413" lon="3.93085">
        <ele>903.5</ele>
        <time>2011-09-20T14:15:09Z</time>
      </trkpt>
      <trkpt lat="44.36419" lon="3.93077">
        <ele>904.7</ele>
        <time>2011-09-20T14:15:23Z</time>
      </trkpt>
      <trkpt lat="44.36427" lon="3.93072">
        <ele>907.7</ele>
        <time>2011-09-20T14:15:44Z</time>
      </trkpt>
      <trkpt lat="44.36435" lon="3.93074">
        <ele>911.2</ele>
        <time>2011-09-20T14:15:57Z</time>
      </trkpt>
      <trkpt lat="44.36444" lon="3.93076">
        <ele>912.7</ele>
        <time>2011-09-20T14:16:18Z</time>
      </trkpt>
      <trkpt lat="44.36448" lon="3.93087">
        <ele>914</ele>
        <time>2011-09-20T14:16:33Z</time>
      </trkpt>
      <trkpt lat="44.36445" lon="3.93099">
        <ele>915.7</ele>
        <time>2011-09-20T14:16:45Z</time>
      </trkpt>
      <trkpt lat="44.3645" lon="3.93109">
        <ele>914</ele>
        <time>2011-09-20T14:17:32Z</time>
      </trkpt>
      <trkpt lat="44.36457" lon="3.93116">
        <ele>915.2</ele>
        <time>2011-09-20T14:17:42Z</time>
      </trkpt>
      <trkpt lat="44.36462" lon="3.93126">
        <ele>917.7</ele>
        <time>2011-09-20T14:17:52Z</time>
      </trkpt>
      <trkpt lat="44.36469" lon="3.93132">
        <ele>920.5</ele>
        <time>2011-09-20T14:18:03Z</time>
      </trkpt>
      <trkpt lat="44.36477" lon="3.93138">
        <ele>921.5</ele>
        <time>2011-09-20T14:18:14Z</time>
      </trkpt>
      <trkpt lat="44.36484" lon="3.93146">
        <ele>922.7</ele>
        <time>2011-09-20T14:18:25Z</time>
      </trkpt>
      <trkpt lat="44.36491" lon="3.93152">
        <ele>924</ele>
        <time>2011-09-20T14:18:35Z</time>
      </trkpt>
      <trkpt lat="44.36499" lon="3.93156">
        <ele>924.5</ele>
        <time>2011-09-20T14:18:44Z</time>
      </trkpt>
      <trkpt lat="44.36508" lon="3.93157">
        <ele>921.4</ele>
        <time>2011-09-20T14:19:12Z</time>
      </trkpt>
      <trkpt lat="44.36516" lon="3.93158">
        <ele>920.2</ele>
        <time>2011-09-20T14:19:22Z</time>
      </trkpt>
      <trkpt lat="44.36523" lon="3.93167">
        <ele>918.9</ele>
        <time>2011-09-20T14:19:31Z</time>
      </trkpt>
      <trkpt lat="44.36525" lon="3.93177">
        <ele>919.5</ele>
        <time>2011-09-20T14:19:39Z</time>
      </trkpt>
      <trkpt lat="44.36526" lon="3.93189">
        <ele>921</ele>
        <time>2011-09-20T14:19:49Z</time>
      </trkpt>
      <trkpt lat="44.36532" lon="3.93198">
        <ele>923</ele>
        <time>2011-09-20T14:20:00Z</time>
      </trkpt>
      <trkpt lat="44.36538" lon="3.93207">
        <ele>924.9</ele>
        <time>2011-09-20T14:20:08Z</time>
      </trkpt>
      <trkpt lat="44.36545" lon="3.93214">
        <ele>925.7</ele>
        <time>2011-09-20T14:20:17Z</time>
      </trkpt>
      <trkpt lat="44.36552" lon="3.93218">
        <ele>928.5</ele>
        <time>2011-09-20T14:20:26Z</time>
      </trkpt>
      <trkpt lat="44.36559" lon="3.93219">
        <ele>927.5</ele>
        <time>2011-09-20T14:20:32Z</time>
      </trkpt>
      <trkpt lat="44.36567" lon="3.93219">
        <ele>926.5</ele>
        <time>2011-09-20T14:20:38Z</time>
      </trkpt>
      <trkpt lat="44.36576" lon="3.93218">
        <ele>924.2</ele>
        <time>2011-09-20T14:20:45Z</time>
      </trkpt>
      <trkpt lat="44.36584" lon="3.93218">
        <ele>923.2</ele>
        <time>2011-09-20T14:20:53Z</time>
      </trkpt>
      <trkpt lat="44.36592" lon="3.93219">
        <ele>923.7</ele>
        <time>2011-09-20T14:21:03Z</time>
      </trkpt>
      <trkpt lat="44.36599" lon="3.93223">
        <ele>926.2</ele>
        <time>2011-09-20T14:21:12Z</time>
      </trkpt>
      <trkpt lat="44.36607" lon="3.93227">
        <ele>926.7</ele>
        <time>2011-09-20T14:21:26Z</time>
      </trkpt>
      <trkpt lat="44.36616" lon="3.93228">
        <ele>925.2</ele>
        <time>2011-09-20T14:21:34Z</time>
      </trkpt>
      <trkpt lat="44.36625" lon="3.9323">
        <ele>927.9</ele>
        <time>2011-09-20T14:21:45Z</time>
      </trkpt>
      <trkpt lat="44.36633" lon="3.93228">
        <ele>926.5</ele>
        <time>2011-09-20T14:21:53Z</time>
      </trkpt>
      <trkpt lat="44.36642" lon="3.93226">
        <ele>924.5</ele>
        <time>2011-09-20T14:22:02Z</time>
      </trkpt>
      <trkpt lat="44.36651" lon="3.93224">
        <ele>924</ele>
        <time>2011-09-20T14:22:10Z</time>
      </trkpt>
      <trkpt lat="44.3666" lon="3.93222">
        <ele>924.4</ele>
        <time>2011-09-20T14:22:18Z</time>
      </trkpt>
      <trkpt lat="44.36667" lon="3.93222">
        <ele>926.2</ele>
        <time>2011-09-20T14:22:26Z</time>
      </trkpt>
      <trkpt lat="44.36676" lon="3.93221">
        <ele>927</ele>
        <time>2011-09-20T14:22:33Z</time>
      </trkpt>
      <trkpt lat="44.36684" lon="3.9322">
        <ele>928.7</ele>
        <time>2011-09-20T14:22:41Z</time>
      </trkpt>
      <trkpt lat="44.36692" lon="3.93218">
        <ele>927.2</ele>
        <time>2011-09-20T14:22:49Z</time>
      </trkpt>
      <trkpt lat="44.367" lon="3.93216">
        <ele>926</ele>
        <time>2011-09-20T14:22:56Z</time>
      </trkpt>
      <trkpt lat="44.36707" lon="3.93211">
        <ele>929.2</ele>
        <time>2011-09-20T14:23:06Z</time>
      </trkpt>
      <trkpt lat="44.36714" lon="3.93206">
        <ele>928.9</ele>
        <time>2011-09-20T14:23:15Z</time>
      </trkpt>
      <trkpt lat="44.36722" lon="3.93203">
        <ele>932.7</ele>
        <time>2011-09-20T14:23:24Z</time>
      </trkpt>
      <trkpt lat="44.36729" lon="3.93199">
        <ele>932</ele>
        <time>2011-09-20T14:23:32Z</time>
      </trkpt>
      <trkpt lat="44.36738" lon="3.93194">
        <ele>936.2</ele>
        <time>2011-09-20T14:23:42Z</time>
      </trkpt>
      <trkpt lat="44.36745" lon="3.93192">
        <ele>955.2</ele>
        <time>2011-09-20T14:23:58Z</time>
      </trkpt>
      <trkpt lat="44.36752" lon="3.93192">
        <ele>953.2</ele>
        <time>2011-09-20T14:24:04Z</time>
      </trkpt>
      <trkpt lat="44.3676" lon="3.93193">
        <ele>949.2</ele>
        <time>2011-09-20T14:24:10Z</time>
      </trkpt>
      <trkpt lat="44.36767" lon="3.93191">
        <ele>942.5</ele>
        <time>2011-09-20T14:24:14Z</time>
      </trkpt>
      <trkpt lat="44.36776" lon="3.93193">
        <ele>939.7</ele>
        <time>2011-09-20T14:24:21Z</time>
      </trkpt>
      <trkpt lat="44.36784" lon="3.93196">
        <ele>940.9</ele>
        <time>2011-09-20T14:24:30Z</time>
      </trkpt>
      <trkpt lat="44.36792" lon="3.93201">
        <ele>941</ele>
        <time>2011-09-20T14:24:41Z</time>
      </trkpt>
      <trkpt lat="44.368" lon="3.93207">
        <ele>940.9</ele>
        <time>2011-09-20T14:24:50Z</time>
      </trkpt>
      <trkpt lat="44.36808" lon="3.93212">
        <ele>940.9</ele>
        <time>2011-09-20T14:24:59Z</time>
      </trkpt>
      <trkpt lat="44.36816" lon="3.93217">
        <ele>939.5</ele>
        <time>2011-09-20T14:25:07Z</time>
      </trkpt>
      <trkpt lat="44.36823" lon="3.93224">
        <ele>940.7</ele>
        <time>2011-09-20T14:25:23Z</time>
      </trkpt>
      <trkpt lat="44.36831" lon="3.93224">
        <ele>939.5</ele>
        <time>2011-09-20T14:25:44Z</time>
      </trkpt>
      <trkpt lat="44.36839" lon="3.93222">
        <ele>937</ele>
        <time>2011-09-20T14:25:56Z</time>
      </trkpt>
      <trkpt lat="44.36848" lon="3.93221">
        <ele>933.5</ele>
        <time>2011-09-20T14:26:05Z</time>
      </trkpt>
      <trkpt lat="44.36857" lon="3.9322">
        <ele>935.5</ele>
        <time>2011-09-20T14:26:17Z</time>
      </trkpt>
      <trkpt lat="44.36865" lon="3.93217">
        <ele>934.2</ele>
        <time>2011-09-20T14:26:25Z</time>
      </trkpt>
      <trkpt lat="44.36874" lon="3.93218">
        <ele>936.9</ele>
        <time>2011-09-20T14:26:34Z</time>
      </trkpt>
      <trkpt lat="44.36882" lon="3.93217">
        <ele>941</ele>
        <time>2011-09-20T14:26:41Z</time>
      </trkpt>
      <trkpt lat="44.3689" lon="3.93213">
        <ele>943.7</ele>
        <time>2011-09-20T14:26:51Z</time>
      </trkpt>
      <trkpt lat="44.36897" lon="3.93209">
        <ele>944.5</ele>
        <time>2011-09-20T14:27:00Z</time>
      </trkpt>
      <trkpt lat="44.36906" lon="3.93208">
        <ele>941.9</ele>
        <time>2011-09-20T14:27:07Z</time>
      </trkpt>
      <trkpt lat="44.36914" lon="3.93204">
        <ele>944.7</ele>
        <time>2011-09-20T14:27:18Z</time>
      </trkpt>
      <trkpt lat="44.36922" lon="3.93202">
        <ele>945.7</ele>
        <time>2011-09-20T14:27:26Z</time>
      </trkpt>
      <trkpt lat="44.3693" lon="3.93198">
        <ele>941.9</ele>
        <time>2011-09-20T14:27:33Z</time>
      </trkpt>
      <trkpt lat="44.36937" lon="3.93191">
        <ele>941</ele>
        <time>2011-09-20T14:27:46Z</time>
      </trkpt>
      <trkpt lat="44.36944" lon="3.93184">
        <ele>938.5</ele>
        <time>2011-09-20T14:27:54Z</time>
      </trkpt>
      <trkpt lat="44.36953" lon="3.9318">
        <ele>942.7</ele>
        <time>2011-09-20T14:28:06Z</time>
      </trkpt>
      <trkpt lat="44.3696" lon="3.93177">
        <ele>946.7</ele>
        <time>2011-09-20T14:28:19Z</time>
      </trkpt>
      <trkpt lat="44.36969" lon="3.93178">
        <ele>956.2</ele>
        <time>2011-09-20T14:28:30Z</time>
      </trkpt>
      <trkpt lat="44.36977" lon="3.93178">
        <ele>954</ele>
        <time>2011-09-20T14:28:35Z</time>
      </trkpt>
      <trkpt lat="44.36984" lon="3.93173">
        <ele>952.7</ele>
        <time>2011-09-20T14:28:46Z</time>
      </trkpt>
      <trkpt lat="44.36991" lon="3.93167">
        <ele>951.2</ele>
        <time>2011-09-20T14:28:54Z</time>
      </trkpt>
      <trkpt lat="44.36999" lon="3.93162">
        <ele>950.9</ele>
        <time>2011-09-20T14:29:02Z</time>
      </trkpt>
      <trkpt lat="44.37005" lon="3.93155">
        <ele>952.2</ele>
        <time>2011-09-20T14:29:09Z</time>
      </trkpt>
      <trkpt lat="44.37011" lon="3.93148">
        <ele>951</ele>
        <time>2011-09-20T14:29:15Z</time>
      </trkpt>
      <trkpt lat="44.37018" lon="3.93142">
        <ele>943.7</ele>
        <time>2011-09-20T14:29:21Z</time>
      </trkpt>
      <trkpt lat="44.37024" lon="3.93133">
        <ele>936.2</ele>
        <time>2011-09-20T14:29:28Z</time>
      </trkpt>
      <trkpt lat="44.3703" lon="3.93125">
        <ele>936</ele>
        <time>2011-09-20T14:29:36Z</time>
      </trkpt>
      <trkpt lat="44.37037" lon="3.93118">
        <ele>934.7</ele>
        <time>2011-09-20T14:29:45Z</time>
      </trkpt>
      <trkpt lat="44.3704" lon="3.93107">
        <ele>937.7</ele>
        <time>2011-09-20T14:29:55Z</time>
      </trkpt>
      <trkpt lat="44.37042" lon="3.93094">
        <ele>941.7</ele>
        <time>2011-09-20T14:30:05Z</time>
      </trkpt>
      <trkpt lat="44.37044" lon="3.93083">
        <ele>942.2</ele>
        <time>2011-09-20T14:30:13Z</time>
      </trkpt>
      <trkpt lat="44.3705" lon="3.93075">
        <ele>942.5</ele>
        <time>2011-09-20T14:30:20Z</time>
      </trkpt>
      <trkpt lat="44.37056" lon="3.93068">
        <ele>947.7</ele>
        <time>2011-09-20T14:30:29Z</time>
      </trkpt>
      <trkpt lat="44.37062" lon="3.93058">
        <ele>951.7</ele>
        <time>2011-09-20T14:30:39Z</time>
      </trkpt>
      <trkpt lat="44.37068" lon="3.93049">
        <ele>953.4</ele>
        <time>2011-09-20T14:30:47Z</time>
      </trkpt>
      <trkpt lat="44.37068" lon="3.93037">
        <ele>958.7</ele>
        <time>2011-09-20T14:30:58Z</time>
      </trkpt>
      <trkpt lat="44.37075" lon="3.93032">
        <ele>958.9</ele>
        <time>2011-09-20T14:31:04Z</time>
      </trkpt>
      <trkpt lat="44.37074" lon="3.93021">
        <ele>958</ele>
        <time>2011-09-20T14:31:12Z</time>
      </trkpt>
      <trkpt lat="44.37074" lon="3.93009">
        <ele>952.7</ele>
        <time>2011-09-20T14:31:21Z</time>
      </trkpt>
      <trkpt lat="44.37081" lon="3.93001">
        <ele>951.9</ele>
        <time>2011-09-20T14:31:34Z</time>
      </trkpt>
      <trkpt lat="44.37087" lon="3.92992">
        <ele>952</ele>
        <time>2011-09-20T14:31:48Z</time>
      </trkpt>
      <trkpt lat="44.37094" lon="3.92983">
        <ele>956.2</ele>
        <time>2011-09-20T14:32:00Z</time>
      </trkpt>
      <trkpt lat="44.37091" lon="3.92973">
        <ele>965.4</ele>
        <time>2011-09-20T14:32:23Z</time>
      </trkpt>
      <trkpt lat="44.37092" lon="3.92961">
        <ele>967.9</ele>
        <time>2011-09-20T14:32:33Z</time>
      </trkpt>
      <trkpt lat="44.37094" lon="3.92949">
        <ele>960.9</ele>
        <time>2011-09-20T14:32:43Z</time>
      </trkpt>
      <trkpt lat="44.371" lon="3.92947">
        <ele>957</ele>
        <time>2011-09-20T14:32:47Z</time>
      </trkpt>
      <trkpt lat="44.37103" lon="3.92937">
        <ele>953.7</ele>
        <time>2011-09-20T14:32:53Z</time>
      </trkpt>
      <trkpt lat="44.37109" lon="3.92934">
        <ele>956.4</ele>
        <time>2011-09-20T14:32:57Z</time>
      </trkpt>
      <trkpt lat="44.37116" lon="3.92932">
        <ele>956.2</ele>
        <time>2011-09-20T14:33:00Z</time>
      </trkpt>
      <trkpt lat="44.37123" lon="3.92924">
        <ele>954</ele>
        <time>2011-09-20T14:33:10Z</time>
      </trkpt>
      <trkpt lat="44.37128" lon="3.92915">
        <ele>955</ele>
        <time>2011-09-20T14:33:20Z</time>
      </trkpt>
      <trkpt lat="44.37127" lon="3.92902">
        <ele>959.2</ele>
        <time>2011-09-20T14:33:31Z</time>
      </trkpt>
      <trkpt lat="44.37134" lon="3.92894">
        <ele>962.5</ele>
        <time>2011-09-20T14:33:40Z</time>
      </trkpt>
      <trkpt lat="44.37141" lon="3.92892">
        <ele>963.4</ele>
        <time>2011-09-20T14:33:43Z</time>
      </trkpt>
      <trkpt lat="44.37149" lon="3.92889">
        <ele>961.5</ele>
        <time>2011-09-20T14:33:47Z</time>
      </trkpt>
      <trkpt lat="44.3715" lon="3.92877">
        <ele>962.2</ele>
        <time>2011-09-20T14:33:58Z</time>
      </trkpt>
      <trkpt lat="44.37153" lon="3.92865">
        <ele>960.9</ele>
        <time>2011-09-20T14:34:09Z</time>
      </trkpt>
      <trkpt lat="44.37157" lon="3.92853">
        <ele>962</ele>
        <time>2011-09-20T14:34:19Z</time>
      </trkpt>
      <trkpt lat="44.37159" lon="3.92843">
        <ele>966</ele>
        <time>2011-09-20T14:34:28Z</time>
      </trkpt>
      <trkpt lat="44.37162" lon="3.92831">
        <ele>964.7</ele>
        <time>2011-09-20T14:34:36Z</time>
      </trkpt>
      <trkpt lat="44.37162" lon="3.92819">
        <ele>973.2</ele>
        <time>2011-09-20T14:34:48Z</time>
      </trkpt>
      <trkpt lat="44.37169" lon="3.92811">
        <ele>974.9</ele>
        <time>2011-09-20T14:34:56Z</time>
      </trkpt>
      <trkpt lat="44.37175" lon="3.92806">
        <ele>975.5</ele>
        <time>2011-09-20T14:35:03Z</time>
      </trkpt>
      <trkpt lat="44.37183" lon="3.92805">
        <ele>973.5</ele>
        <time>2011-09-20T14:35:06Z</time>
      </trkpt>
      <trkpt lat="44.37191" lon="3.92802">
        <ele>970.2</ele>
        <time>2011-09-20T14:35:11Z</time>
      </trkpt>
      <trkpt lat="44.37199" lon="3.92808">
        <ele>977.7</ele>
        <time>2011-09-20T14:35:27Z</time>
      </trkpt>
      <trkpt lat="44.37204" lon="3.92816">
        <ele>978.9</ele>
        <time>2011-09-20T14:35:36Z</time>
      </trkpt>
      <trkpt lat="44.3721" lon="3.92822">
        <ele>979.7</ele>
        <time>2011-09-20T14:35:42Z</time>
      </trkpt>
      <trkpt lat="44.37216" lon="3.92832">
        <ele>981.5</ele>
        <time>2011-09-20T14:35:50Z</time>
      </trkpt>
      <trkpt lat="44.37221" lon="3.92842">
        <ele>985.5</ele>
        <time>2011-09-20T14:36:02Z</time>
      </trkpt>
      <trkpt lat="44.37229" lon="3.92848">
        <ele>984</ele>
        <time>2011-09-20T14:36:12Z</time>
      </trkpt>
      <trkpt lat="44.37237" lon="3.92852">
        <ele>979</ele>
        <time>2011-09-20T14:36:20Z</time>
      </trkpt>
      <trkpt lat="44.37243" lon="3.9286">
        <ele>980.5</ele>
        <time>2011-09-20T14:36:31Z</time>
      </trkpt>
      <trkpt lat="44.37251" lon="3.9286">
        <ele>978.9</ele>
        <time>2011-09-20T14:36:39Z</time>
      </trkpt>
      <trkpt lat="44.3726" lon="3.92858">
        <ele>977.7</ele>
        <time>2011-09-20T14:36:49Z</time>
      </trkpt>
      <trkpt lat="44.37269" lon="3.92858">
        <ele>977.7</ele>
        <time>2011-09-20T14:37:00Z</time>
      </trkpt>
      <trkpt lat="44.37277" lon="3.92859">
        <ele>976.9</ele>
        <time>2011-09-20T14:37:07Z</time>
      </trkpt>
      <trkpt lat="44.37286" lon="3.92857">
        <ele>975</ele>
        <time>2011-09-20T14:37:16Z</time>
      </trkpt>
      <trkpt lat="44.37294" lon="3.92858">
        <ele>972.7</ele>
        <time>2011-09-20T14:37:22Z</time>
      </trkpt>
      <trkpt lat="44.37303" lon="3.92863">
        <ele>976.2</ele>
        <time>2011-09-20T14:37:32Z</time>
      </trkpt>
      <trkpt lat="44.37308" lon="3.92871">
        <ele>983.5</ele>
        <time>2011-09-20T14:37:43Z</time>
      </trkpt>
      <trkpt lat="44.37316" lon="3.92872">
        <ele>984.5</ele>
        <time>2011-09-20T14:37:51Z</time>
      </trkpt>
      <trkpt lat="44.37325" lon="3.92872">
        <ele>985.7</ele>
        <time>2011-09-20T14:38:00Z</time>
      </trkpt>
      <trkpt lat="44.37332" lon="3.92871">
        <ele>986.7</ele>
        <time>2011-09-20T14:38:08Z</time>
      </trkpt>
      <trkpt lat="44.3734" lon="3.92867">
        <ele>985.7</ele>
        <time>2011-09-20T14:38:17Z</time>
      </trkpt>
      <trkpt lat="44.37349" lon="3.92864">
        <ele>990.4</ele>
        <time>2011-09-20T14:38:31Z</time>
      </trkpt>
      <trkpt lat="44.37356" lon="3.92859">
        <ele>986.7</ele>
        <time>2011-09-20T14:38:38Z</time>
      </trkpt>
      <trkpt lat="44.37363" lon="3.92856">
        <ele>986.5</ele>
        <time>2011-09-20T14:38:47Z</time>
      </trkpt>
      <trkpt lat="44.37372" lon="3.92852">
        <ele>982.2</ele>
        <time>2011-09-20T14:38:53Z</time>
      </trkpt>
      <trkpt lat="44.37379" lon="3.92845">
        <ele>977.2</ele>
        <time>2011-09-20T14:39:03Z</time>
      </trkpt>
      <trkpt lat="44.37386" lon="3.92839">
        <ele>979</ele>
        <time>2011-09-20T14:39:11Z</time>
      </trkpt>
      <trkpt lat="44.37394" lon="3.92834">
        <ele>978.7</ele>
        <time>2011-09-20T14:39:20Z</time>
      </trkpt>
      <trkpt lat="44.37402" lon="3.92829">
        <ele>984.2</ele>
        <time>2011-09-20T14:39:33Z</time>
      </trkpt>
      <trkpt lat="44.37409" lon="3.92824">
        <ele>983.7</ele>
        <time>2011-09-20T14:39:40Z</time>
      </trkpt>
      <trkpt lat="44.37417" lon="3.92818">
        <ele>981.5</ele>
        <time>2011-09-20T14:39:46Z</time>
      </trkpt>
      <trkpt lat="44.37424" lon="3.92812">
        <ele>982</ele>
        <time>2011-09-20T14:39:55Z</time>
      </trkpt>
      <trkpt lat="44.3743" lon="3.92804">
        <ele>979.5</ele>
        <time>2011-09-20T14:40:04Z</time>
      </trkpt>
      <trkpt lat="44.37438" lon="3.92799">
        <ele>981.5</ele>
        <time>2011-09-20T14:40:12Z</time>
      </trkpt>
      <trkpt lat="44.3744" lon="3.92788">
        <ele>985.7</ele>
        <time>2011-09-20T14:40:42Z</time>
      </trkpt>
      <trkpt lat="44.37445" lon="3.92779">
        <ele>986.4</ele>
        <time>2011-09-20T14:40:55Z</time>
      </trkpt>
      <trkpt lat="44.37451" lon="3.92772">
        <ele>987.5</ele>
        <time>2011-09-20T14:41:04Z</time>
      </trkpt>
      <trkpt lat="44.37455" lon="3.92761">
        <ele>985.4</ele>
        <time>2011-09-20T14:41:14Z</time>
      </trkpt>
      <trkpt lat="44.37459" lon="3.9275">
        <ele>988.4</ele>
        <time>2011-09-20T14:41:24Z</time>
      </trkpt>
      <trkpt lat="44.37461" lon="3.92738">
        <ele>993.2</ele>
        <time>2011-09-20T14:41:36Z</time>
      </trkpt>
      <trkpt lat="44.37457" lon="3.92728">
        <ele>992.5</ele>
        <time>2011-09-20T14:41:42Z</time>
      </trkpt>
      <trkpt lat="44.37463" lon="3.92722">
        <ele>991.5</ele>
        <time>2011-09-20T14:41:48Z</time>
      </trkpt>
      <trkpt lat="44.3747" lon="3.92718">
        <ele>989.2</ele>
        <time>2011-09-20T14:41:53Z</time>
      </trkpt>
      <trkpt lat="44.37479" lon="3.92714">
        <ele>991.7</ele>
        <time>2011-09-20T14:42:02Z</time>
      </trkpt>
      <trkpt lat="44.37486" lon="3.92709">
        <ele>992.7</ele>
        <time>2011-09-20T14:42:10Z</time>
      </trkpt>
      <trkpt lat="44.37494" lon="3.92707">
        <ele>997</ele>
        <time>2011-09-20T14:42:15Z</time>
      </trkpt>
      <trkpt lat="44.37494" lon="3.92696">
        <ele>1005.5</ele>
        <time>2011-09-20T14:42:26Z</time>
      </trkpt>
      <trkpt lat="44.37499" lon="3.92686">
        <ele>1008.5</ele>
        <time>2011-09-20T14:42:37Z</time>
      </trkpt>
      <trkpt lat="44.37504" lon="3.92677">
        <ele>1010.4</ele>
        <time>2011-09-20T14:42:47Z</time>
      </trkpt>
      <trkpt lat="44.37507" lon="3.92666">
        <ele>1011.5</ele>
        <time>2011-09-20T14:42:57Z</time>
      </trkpt>
      <trkpt lat="44.37511" lon="3.92655">
        <ele>1011</ele>
        <time>2011-09-20T14:43:07Z</time>
      </trkpt>
      <trkpt lat="44.37517" lon="3.92648">
        <ele>1007</ele>
        <time>2011-09-20T14:43:14Z</time>
      </trkpt>
      <trkpt lat="44.37515" lon="3.92636">
        <ele>1005.7</ele>
        <time>2011-09-20T14:43:22Z</time>
      </trkpt>
      <trkpt lat="44.37512" lon="3.92626">
        <ele>1007.9</ele>
        <time>2011-09-20T14:43:30Z</time>
      </trkpt>
      <trkpt lat="44.37508" lon="3.92615">
        <ele>1008.7</ele>
        <time>2011-09-20T14:43:37Z</time>
      </trkpt>
      <trkpt lat="44.37507" lon="3.92604">
        <ele>1011</ele>
        <time>2011-09-20T14:43:44Z</time>
      </trkpt>
      <trkpt lat="44.37515" lon="3.92599">
        <ele>1013.2</ele>
        <time>2011-09-20T14:43:51Z</time>
      </trkpt>
      <trkpt lat="44.37521" lon="3.9259">
        <ele>1010.5</ele>
        <time>2011-09-20T14:44:00Z</time>
      </trkpt>
      <trkpt lat="44.37515" lon="3.92581">
        <ele>1009.2</ele>
        <time>2011-09-20T14:44:05Z</time>
      </trkpt>
      <trkpt lat="44.37518" lon="3.92571">
        <ele>1007.4</ele>
        <time>2011-09-20T14:44:13Z</time>
      </trkpt>
      <trkpt lat="44.37524" lon="3.92564">
        <ele>1007.9</ele>
        <time>2011-09-20T14:44:20Z</time>
      </trkpt>
      <trkpt lat="44.37528" lon="3.92554">
        <ele>1020</ele>
        <time>2011-09-20T14:44:29Z</time>
      </trkpt>
      <trkpt lat="44.37525" lon="3.92542">
        <ele>1020</ele>
        <time>2011-09-20T14:44:36Z</time>
      </trkpt>
      <trkpt lat="44.37528" lon="3.92531">
        <ele>1019</ele>
        <time>2011-09-20T14:44:47Z</time>
      </trkpt>
      <trkpt lat="44.37536" lon="3.92528">
        <ele>1018.5</ele>
        <time>2011-09-20T14:44:53Z</time>
      </trkpt>
      <trkpt lat="44.37545" lon="3.92523">
        <ele>1016.9</ele>
        <time>2011-09-20T14:44:59Z</time>
      </trkpt>
      <trkpt lat="44.37547" lon="3.92511">
        <ele>1017</ele>
        <time>2011-09-20T14:45:10Z</time>
      </trkpt>
      <trkpt lat="44.37548" lon="3.925">
        <ele>1032.6</ele>
        <time>2011-09-20T14:45:19Z</time>
      </trkpt>
      <trkpt lat="44.37552" lon="3.92491">
        <ele>1039.6</ele>
        <time>2011-09-20T14:45:27Z</time>
      </trkpt>
      <trkpt lat="44.37551" lon="3.92479">
        <ele>1043.3</ele>
        <time>2011-09-20T14:45:38Z</time>
      </trkpt>
      <trkpt lat="44.37556" lon="3.9247">
        <ele>1043.6</ele>
        <time>2011-09-20T14:45:46Z</time>
      </trkpt>
      <trkpt lat="44.37563" lon="3.92469">
        <ele>1043.5</ele>
        <time>2011-09-20T14:45:49Z</time>
      </trkpt>
      <trkpt lat="44.37568" lon="3.92467">
        <ele>1043.6</ele>
        <time>2011-09-20T14:45:53Z</time>
      </trkpt>
      <trkpt lat="44.37576" lon="3.92469">
        <ele>1046</ele>
        <time>2011-09-20T14:45:55Z</time>
      </trkpt>
      <trkpt lat="44.37585" lon="3.92472">
        <ele>1033.5</ele>
        <time>2011-09-20T14:46:05Z</time>
      </trkpt>
      <trkpt lat="44.37589" lon="3.92482">
        <ele>1029.4</ele>
        <time>2011-09-20T14:46:18Z</time>
      </trkpt>
      <trkpt lat="44.37594" lon="3.92492">
        <ele>1032.5</ele>
        <time>2011-09-20T14:46:26Z</time>
      </trkpt>
      <trkpt lat="44.37602" lon="3.92491">
        <ele>1029</ele>
        <time>2011-09-20T14:46:35Z</time>
      </trkpt>
      <trkpt lat="44.37611" lon="3.92491">
        <ele>1024.5</ele>
        <time>2011-09-20T14:46:42Z</time>
      </trkpt>
      <trkpt lat="44.37619" lon="3.92496">
        <ele>1025.8</ele>
        <time>2011-09-20T14:46:49Z</time>
      </trkpt>
      <trkpt lat="44.37624" lon="3.92506">
        <ele>1025</ele>
        <time>2011-09-20T14:47:02Z</time>
      </trkpt>
      <trkpt lat="44.37626" lon="3.92517">
        <ele>1027.6</ele>
        <time>2011-09-20T14:47:09Z</time>
      </trkpt>
      <trkpt lat="44.37631" lon="3.92526">
        <ele>1029</ele>
        <time>2011-09-20T14:47:20Z</time>
      </trkpt>
      <trkpt lat="44.37639" lon="3.9253">
        <ele>1025.5</ele>
        <time>2011-09-20T14:47:31Z</time>
      </trkpt>
      <trkpt lat="44.37647" lon="3.92534">
        <ele>1024.9</ele>
        <time>2011-09-20T14:47:41Z</time>
      </trkpt>
      <trkpt lat="44.37656" lon="3.92532">
        <ele>1026.9</ele>
        <time>2011-09-20T14:52:37Z</time>
      </trkpt>
      <trkpt lat="44.37665" lon="3.9253">
        <ele>1032</ele>
        <time>2011-09-20T14:52:49Z</time>
      </trkpt>
      <trkpt lat="44.37672" lon="3.92526">
        <ele>1030</ele>
        <time>2011-09-20T14:52:59Z</time>
      </trkpt>
      <trkpt lat="44.37681" lon="3.92528">
        <ele>1035.8</ele>
        <time>2011-09-20T14:53:08Z</time>
      </trkpt>
      <trkpt lat="44.3769" lon="3.92529">
        <ele>1041.4</ele>
        <time>2011-09-20T14:53:19Z</time>
      </trkpt>
      <trkpt lat="44.37698" lon="3.92526">
        <ele>1040</ele>
        <time>2011-09-20T14:53:28Z</time>
      </trkpt>
      <trkpt lat="44.37706" lon="3.9252">
        <ele>1037.5</ele>
        <time>2011-09-20T14:53:37Z</time>
      </trkpt>
      <trkpt lat="44.37712" lon="3.92513">
        <ele>1032.9</ele>
        <time>2011-09-20T14:53:44Z</time>
      </trkpt>
      <trkpt lat="44.37718" lon="3.92504">
        <ele>1029.5</ele>
        <time>2011-09-20T14:53:52Z</time>
      </trkpt>
      <trkpt lat="44.37724" lon="3.92495">
        <ele>1032.4</ele>
        <time>2011-09-20T14:54:00Z</time>
      </trkpt>
      <trkpt lat="44.37731" lon="3.92487">
        <ele>1029.6</ele>
        <time>2011-09-20T14:54:07Z</time>
      </trkpt>
      <trkpt lat="44.37739" lon="3.92481">
        <ele>1034</ele>
        <time>2011-09-20T14:54:15Z</time>
      </trkpt>
      <trkpt lat="44.37742" lon="3.9247">
        <ele>1038.3</ele>
        <time>2011-09-20T14:54:25Z</time>
      </trkpt>
      <trkpt lat="44.37745" lon="3.92459">
        <ele>1049.9</ele>
        <time>2011-09-20T14:54:35Z</time>
      </trkpt>
      <trkpt lat="44.37751" lon="3.92452">
        <ele>1053.5</ele>
        <time>2011-09-20T14:54:42Z</time>
      </trkpt>
      <trkpt lat="44.37756" lon="3.92444">
        <ele>1052.9</ele>
        <time>2011-09-20T14:54:52Z</time>
      </trkpt>
      <trkpt lat="44.37759" lon="3.92432">
        <ele>1053.5</ele>
        <time>2011-09-20T14:55:03Z</time>
      </trkpt>
      <trkpt lat="44.37763" lon="3.92421">
        <ele>1057.1</ele>
        <time>2011-09-20T14:55:13Z</time>
      </trkpt>
      <trkpt lat="44.37767" lon="3.92411">
        <ele>1066.5</ele>
        <time>2011-09-20T14:55:25Z</time>
      </trkpt>
      <trkpt lat="44.37775" lon="3.92407">
        <ele>1062</ele>
        <time>2011-09-20T14:55:32Z</time>
      </trkpt>
      <trkpt lat="44.37784" lon="3.92406">
        <ele>1059.4</ele>
        <time>2011-09-20T14:55:40Z</time>
      </trkpt>
      <trkpt lat="44.37791" lon="3.924">
        <ele>1046</ele>
        <time>2011-09-20T14:55:47Z</time>
      </trkpt>
      <trkpt lat="44.378" lon="3.92396">
        <ele>1040.9</ele>
        <time>2011-09-20T14:55:58Z</time>
      </trkpt>
      <trkpt lat="44.37808" lon="3.92398">
        <ele>1052.5</ele>
        <time>2011-09-20T14:56:09Z</time>
      </trkpt>
      <trkpt lat="44.37816" lon="3.92398">
        <ele>1057.3</ele>
        <time>2011-09-20T14:56:15Z</time>
      </trkpt>
      <trkpt lat="44.37824" lon="3.92396">
        <ele>1047.5</ele>
        <time>2011-09-20T14:56:25Z</time>
      </trkpt>
      <trkpt lat="44.37832" lon="3.92397">
        <ele>1047.4</ele>
        <time>2011-09-20T14:56:34Z</time>
      </trkpt>
      <trkpt lat="44.3784" lon="3.92397">
        <ele>1043.9</ele>
        <time>2011-09-20T14:56:42Z</time>
      </trkpt>
      <trkpt lat="44.37848" lon="3.924">
        <ele>1044.6</ele>
        <time>2011-09-20T14:56:49Z</time>
      </trkpt>
      <trkpt lat="44.37854" lon="3.92409">
        <ele>1056.9</ele>
        <time>2011-09-20T14:56:59Z</time>
      </trkpt>
      <trkpt lat="44.37862" lon="3.9241">
        <ele>1044</ele>
        <time>2011-09-20T14:57:08Z</time>
      </trkpt>
      <trkpt lat="44.37871" lon="3.92411">
        <ele>1037.8</ele>
        <time>2011-09-20T14:57:15Z</time>
      </trkpt>
      <trkpt lat="44.3788" lon="3.9241">
        <ele>1040</ele>
        <time>2011-09-20T14:57:25Z</time>
      </trkpt>
      <trkpt lat="44.37888" lon="3.92409">
        <ele>1038.3</ele>
        <time>2011-09-20T14:57:34Z</time>
      </trkpt>
      <trkpt lat="44.37897" lon="3.92407">
        <ele>1038.4</ele>
        <time>2011-09-20T14:57:44Z</time>
      </trkpt>
      <trkpt lat="44.37905" lon="3.92405">
        <ele>1040.4</ele>
        <time>2011-09-20T14:57:54Z</time>
      </trkpt>
      <trkpt lat="44.37913" lon="3.92405">
        <ele>1035.9</ele>
        <time>2011-09-20T14:58:01Z</time>
      </trkpt>
      <trkpt lat="44.37921" lon="3.92404">
        <ele>1038.8</ele>
        <time>2011-09-20T14:58:09Z</time>
      </trkpt>
      <trkpt lat="44.37929" lon="3.92403">
        <ele>1040.8</ele>
        <time>2011-09-20T14:58:16Z</time>
      </trkpt>
      <trkpt lat="44.37937" lon="3.92402">
        <ele>1045.1</ele>
        <time>2011-09-20T14:58:23Z</time>
      </trkpt>
      <trkpt lat="44.37945" lon="3.92401">
        <ele>1045.5</ele>
        <time>2011-09-20T14:58:35Z</time>
      </trkpt>
      <trkpt lat="44.37954" lon="3.92401">
        <ele>1043.4</ele>
        <time>2011-09-20T14:58:43Z</time>
      </trkpt>
      <trkpt lat="44.37962" lon="3.92402">
        <ele>1039.1</ele>
        <time>2011-09-20T14:58:51Z</time>
      </trkpt>
      <trkpt lat="44.37971" lon="3.92402">
        <ele>1036.5</ele>
        <time>2011-09-20T14:58:58Z</time>
      </trkpt>
      <trkpt lat="44.37978" lon="3.92399">
        <ele>1033.4</ele>
        <time>2011-09-20T14:59:06Z</time>
      </trkpt>
      <trkpt lat="44.37986" lon="3.92393">
        <ele>1063.6</ele>
        <time>2011-09-20T15:00:28Z</time>
      </trkpt>
      <trkpt lat="44.37982" lon="3.92404">
        <ele>1042.6</ele>
        <time>2011-09-20T15:01:38Z</time>
      </trkpt>
      <trkpt lat="44.37977" lon="3.92413">
        <ele>1061.5</ele>
        <time>2011-09-20T15:01:57Z</time>
      </trkpt>
      <trkpt lat="44.3797" lon="3.9242">
        <ele>1025.4</ele>
        <time>2011-09-20T15:02:41Z</time>
      </trkpt>
      <trkpt lat="44.37964" lon="3.92428">
        <ele>1028</ele>
        <time>2011-09-20T15:02:52Z</time>
      </trkpt>
      <trkpt lat="44.37955" lon="3.92429">
        <ele>1033.5</ele>
        <time>2011-09-20T15:03:07Z</time>
      </trkpt>
      <trkpt lat="44.37947" lon="3.92429">
        <ele>1036.9</ele>
        <time>2011-09-20T15:03:15Z</time>
      </trkpt>
      <trkpt lat="44.37939" lon="3.92433">
        <ele>1042.5</ele>
        <time>2011-09-20T15:03:24Z</time>
      </trkpt>
      <trkpt lat="44.37932" lon="3.92441">
        <ele>1044.1</ele>
        <time>2011-09-20T15:03:40Z</time>
      </trkpt>
      <trkpt lat="44.37924" lon="3.92439">
        <ele>1027</ele>
        <time>2011-09-20T15:03:51Z</time>
      </trkpt>
      <trkpt lat="44.37916" lon="3.92442">
        <ele>1021.5</ele>
        <time>2011-09-20T15:04:06Z</time>
      </trkpt>
      <trkpt lat="44.37923" lon="3.92449">
        <ele>1024.1</ele>
        <time>2011-09-20T15:04:23Z</time>
      </trkpt>
      <trkpt lat="44.37931" lon="3.9245">
        <ele>1011.4</ele>
        <time>2011-09-20T15:04:36Z</time>
      </trkpt>
      <trkpt lat="44.37936" lon="3.9246">
        <ele>1016.2</ele>
        <time>2011-09-20T15:04:53Z</time>
      </trkpt>
      <trkpt lat="44.37943" lon="3.92467">
        <ele>1020</ele>
        <time>2011-09-20T15:05:07Z</time>
      </trkpt>
      <trkpt lat="44.3795" lon="3.92475">
        <ele>1009.5</ele>
        <time>2011-09-20T15:05:24Z</time>
      </trkpt>
      <trkpt lat="44.37943" lon="3.92482">
        <ele>1008.7</ele>
        <time>2011-09-20T15:05:51Z</time>
      </trkpt>
      <trkpt lat="44.37936" lon="3.9249">
        <ele>1018.7</ele>
        <time>2011-09-20T15:06:04Z</time>
      </trkpt>
      <trkpt lat="44.37929" lon="3.92492">
        <ele>1023.7</ele>
        <time>2011-09-20T15:06:14Z</time>
      </trkpt>
      <trkpt lat="44.37936" lon="3.925">
        <ele>1019.2</ele>
        <time>2011-09-20T15:06:45Z</time>
      </trkpt>
      <trkpt lat="44.37943" lon="3.92507">
        <ele>1004</ele>
        <time>2011-09-20T15:07:02Z</time>
      </trkpt>
      <trkpt lat="44.3795" lon="3.92513">
        <ele>1000</ele>
        <time>2011-09-20T15:07:21Z</time>
      </trkpt>
      <trkpt lat="44.37943" lon="3.92521">
        <ele>995.7</ele>
        <time>2011-09-20T15:07:41Z</time>
      </trkpt>
      <trkpt lat="44.37935" lon="3.92521">
        <ele>992.5</ele>
        <time>2011-09-20T15:07:56Z</time>
      </trkpt>
      <trkpt lat="44.37927" lon="3.92524">
        <ele>998.7</ele>
        <time>2011-09-20T15:08:10Z</time>
      </trkpt>
      <trkpt lat="44.3792" lon="3.92531">
        <ele>1004.2</ele>
        <time>2011-09-20T15:08:23Z</time>
      </trkpt>
      <trkpt lat="44.37912" lon="3.92525">
        <ele>991.2</ele>
        <time>2011-09-20T15:08:40Z</time>
      </trkpt>
      <trkpt lat="44.37904" lon="3.92528">
        <ele>983.7</ele>
        <time>2011-09-20T15:08:53Z</time>
      </trkpt>
      <trkpt lat="44.37895" lon="3.92528">
        <ele>989</ele>
        <time>2011-09-20T15:09:06Z</time>
      </trkpt>
      <trkpt lat="44.37889" lon="3.92537">
        <ele>1009.5</ele>
        <time>2011-09-20T15:09:21Z</time>
      </trkpt>
      <trkpt lat="44.37897" lon="3.9254">
        <ele>991.5</ele>
        <time>2011-09-20T15:09:32Z</time>
      </trkpt>
      <trkpt lat="44.37906" lon="3.9254">
        <ele>958.4</ele>
        <time>2011-09-20T15:09:48Z</time>
      </trkpt>
      <trkpt lat="44.37914" lon="3.92543">
        <ele>948.7</ele>
        <time>2011-09-20T15:09:59Z</time>
      </trkpt>
      <trkpt lat="44.37922" lon="3.92547">
        <ele>951.2</ele>
        <time>2011-09-20T15:10:12Z</time>
      </trkpt>
      <trkpt lat="44.37926" lon="3.92557">
        <ele>949.4</ele>
        <time>2011-09-20T15:10:31Z</time>
      </trkpt>
      <trkpt lat="44.37931" lon="3.92567">
        <ele>959</ele>
        <time>2011-09-20T15:10:47Z</time>
      </trkpt>
      <trkpt lat="44.37935" lon="3.92577">
        <ele>964.7</ele>
        <time>2011-09-20T15:10:56Z</time>
      </trkpt>
      <trkpt lat="44.37942" lon="3.92585">
        <ele>971.5</ele>
        <time>2011-09-20T15:11:15Z</time>
      </trkpt>
      <trkpt lat="44.37949" lon="3.92593">
        <ele>956.7</ele>
        <time>2011-09-20T15:11:43Z</time>
      </trkpt>
      <trkpt lat="44.37956" lon="3.926">
        <ele>953</ele>
        <time>2011-09-20T15:11:59Z</time>
      </trkpt>
      <trkpt lat="44.37963" lon="3.92607">
        <ele>950.4</ele>
        <time>2011-09-20T15:12:19Z</time>
      </trkpt>
      <trkpt lat="44.37971" lon="3.92611">
        <ele>951.7</ele>
        <time>2011-09-20T15:12:36Z</time>
      </trkpt>
      <trkpt lat="44.37977" lon="3.92621">
        <ele>958.5</ele>
        <time>2011-09-20T15:12:49Z</time>
      </trkpt>
      <trkpt lat="44.37985" lon="3.92625">
        <ele>935.4</ele>
        <time>2011-09-20T15:13:06Z</time>
      </trkpt>
      <trkpt lat="44.37991" lon="3.92634">
        <ele>944.4</ele>
        <time>2011-09-20T15:13:16Z</time>
      </trkpt>
      <trkpt lat="44.37998" lon="3.9264">
        <ele>943</ele>
        <time>2011-09-20T15:13:31Z</time>
      </trkpt>
      <trkpt lat="44.38007" lon="3.92642">
        <ele>935.5</ele>
        <time>2011-09-20T15:13:51Z</time>
      </trkpt>
      <trkpt lat="44.38016" lon="3.92644">
        <ele>936.4</ele>
        <time>2011-09-20T15:14:06Z</time>
      </trkpt>
      <trkpt lat="44.38022" lon="3.92652">
        <ele>950.2</ele>
        <time>2011-09-20T15:14:18Z</time>
      </trkpt>
      <trkpt lat="44.38029" lon="3.92644">
        <ele>940.2</ele>
        <time>2011-09-20T15:14:49Z</time>
      </trkpt>
      <trkpt lat="44.38036" lon="3.92639">
        <ele>935.7</ele>
        <time>2011-09-20T15:15:01Z</time>
      </trkpt>
      <trkpt lat="44.38045" lon="3.92638">
        <ele>941.7</ele>
        <time>2011-09-20T15:15:12Z</time>
      </trkpt>
      <trkpt lat="44.38053" lon="3.92643">
        <ele>961.4</ele>
        <time>2011-09-20T15:15:31Z</time>
      </trkpt>
      <trkpt lat="44.38059" lon="3.92634">
        <ele>950.9</ele>
        <time>2011-09-20T15:15:40Z</time>
      </trkpt>
      <trkpt lat="44.3805" lon="3.92637">
        <ele>908.5</ele>
        <time>2011-09-20T15:16:35Z</time>
      </trkpt>
      <trkpt lat="44.38049" lon="3.92648">
        <ele>917.2</ele>
        <time>2011-09-20T15:16:40Z</time>
      </trkpt>
      <trkpt lat="44.38048" lon="3.9266">
        <ele>926.9</ele>
        <time>2011-09-20T15:16:46Z</time>
      </trkpt>
      <trkpt lat="44.38047" lon="3.92671">
        <ele>927.5</ele>
        <time>2011-09-20T15:16:58Z</time>
      </trkpt>
      <trkpt lat="44.38046" lon="3.92682">
        <ele>921.2</ele>
        <time>2011-09-20T15:17:07Z</time>
      </trkpt>
      <trkpt lat="44.38043" lon="3.92692">
        <ele>912.5</ele>
        <time>2011-09-20T15:17:17Z</time>
      </trkpt>
      <trkpt lat="44.38039" lon="3.92703">
        <ele>924</ele>
        <time>2011-09-20T15:17:29Z</time>
      </trkpt>
      <trkpt lat="44.38039" lon="3.92715">
        <ele>932.7</ele>
        <time>2011-09-20T15:17:41Z</time>
      </trkpt>
      <trkpt lat="44.38037" lon="3.92727">
        <ele>947</ele>
        <time>2011-09-20T15:17:52Z</time>
      </trkpt>
      <trkpt lat="44.38028" lon="3.92727">
        <ele>909.5</ele>
        <time>2011-09-20T15:18:51Z</time>
      </trkpt>
      <trkpt lat="44.3802" lon="3.9273">
        <ele>903.9</ele>
        <time>2011-09-20T15:19:17Z</time>
      </trkpt>
      <trkpt lat="44.38013" lon="3.92738">
        <ele>912</ele>
        <time>2011-09-20T15:19:34Z</time>
      </trkpt>
      <trkpt lat="44.3801" lon="3.9275">
        <ele>913</ele>
        <time>2011-09-20T15:19:44Z</time>
      </trkpt>
      <trkpt lat="44.38004" lon="3.92758">
        <ele>913.2</ele>
        <time>2011-09-20T15:20:09Z</time>
      </trkpt>
      <trkpt lat="44.38005" lon="3.9277">
        <ele>901.7</ele>
        <time>2011-09-20T15:20:28Z</time>
      </trkpt>
      <trkpt lat="44.38013" lon="3.92774">
        <ele>900.2</ele>
        <time>2011-09-20T15:20:45Z</time>
      </trkpt>
      <trkpt lat="44.38021" lon="3.9278">
        <ele>890.9</ele>
        <time>2011-09-20T15:21:05Z</time>
      </trkpt>
      <trkpt lat="44.38027" lon="3.92789">
        <ele>895</ele>
        <time>2011-09-20T15:21:18Z</time>
      </trkpt>
      <trkpt lat="44.38033" lon="3.92798">
        <ele>900.2</ele>
        <time>2011-09-20T15:21:31Z</time>
      </trkpt>
      <trkpt lat="44.38041" lon="3.92798">
        <ele>892</ele>
        <time>2011-09-20T15:21:52Z</time>
      </trkpt>
      <trkpt lat="44.3805" lon="3.92802">
        <ele>889.2</ele>
        <time>2011-09-20T15:22:12Z</time>
      </trkpt>
      <trkpt lat="44.38042" lon="3.92807">
        <ele>886.2</ele>
        <time>2011-09-20T15:23:01Z</time>
      </trkpt>
      <trkpt lat="44.3804" lon="3.92818">
        <ele>901.5</ele>
        <time>2011-09-20T15:23:07Z</time>
      </trkpt>
      <trkpt lat="44.38047" lon="3.92811">
        <ele>894.2</ele>
        <time>2011-09-20T15:23:48Z</time>
      </trkpt>
      <trkpt lat="44.38052" lon="3.92802">
        <ele>888</ele>
        <time>2011-09-20T15:23:58Z</time>
      </trkpt>
      <trkpt lat="44.38059" lon="3.92794">
        <ele>884.5</ele>
        <time>2011-09-20T15:24:09Z</time>
      </trkpt>
      <trkpt lat="44.38067" lon="3.92789">
        <ele>885.5</ele>
        <time>2011-09-20T15:24:19Z</time>
      </trkpt>
      <trkpt lat="44.38066" lon="3.92802">
        <ele>888.9</ele>
        <time>2011-09-20T15:25:20Z</time>
      </trkpt>
      <trkpt lat="44.38065" lon="3.92814">
        <ele>889.9</ele>
        <time>2011-09-20T15:25:37Z</time>
      </trkpt>
      <trkpt lat="44.38063" lon="3.92826">
        <ele>875.5</ele>
        <time>2011-09-20T15:25:58Z</time>
      </trkpt>
      <trkpt lat="44.38059" lon="3.92836">
        <ele>873.2</ele>
        <time>2011-09-20T15:26:15Z</time>
      </trkpt>
      <trkpt lat="44.38056" lon="3.92847">
        <ele>869.2</ele>
        <time>2011-09-20T15:26:38Z</time>
      </trkpt>
      <trkpt lat="44.38056" lon="3.9286">
        <ele>875.7</ele>
        <time>2011-09-20T15:27:01Z</time>
      </trkpt>
      <trkpt lat="44.38055" lon="3.92872">
        <ele>872</ele>
        <time>2011-09-20T15:27:37Z</time>
      </trkpt>
      <trkpt lat="44.3806" lon="3.92881">
        <ele>872.5</ele>
        <time>2011-09-20T15:28:02Z</time>
      </trkpt>
      <trkpt lat="44.38061" lon="3.92894">
        <ele>865.5</ele>
        <time>2011-09-20T15:28:32Z</time>
      </trkpt>
      <trkpt lat="44.38059" lon="3.92906">
        <ele>863.7</ele>
        <time>2011-09-20T15:28:55Z</time>
      </trkpt>
      <trkpt lat="44.38059" lon="3.92918">
        <ele>866</ele>
        <time>2011-09-20T15:29:15Z</time>
      </trkpt>
      <trkpt lat="44.38058" lon="3.9293">
        <ele>854.9</ele>
        <time>2011-09-20T15:29:36Z</time>
      </trkpt>
      <trkpt lat="44.38057" lon="3.92942">
        <ele>852.7</ele>
        <time>2011-09-20T15:30:00Z</time>
      </trkpt>
      <trkpt lat="44.38059" lon="3.92954">
        <ele>850.2</ele>
        <time>2011-09-20T15:30:21Z</time>
      </trkpt>
      <trkpt lat="44.38066" lon="3.92961">
        <ele>846.2</ele>
        <time>2011-09-20T15:30:38Z</time>
      </trkpt>
      <trkpt lat="44.38073" lon="3.92968">
        <ele>845.4</ele>
        <time>2011-09-20T15:30:53Z</time>
      </trkpt>
      <trkpt lat="44.38081" lon="3.92973">
        <ele>839.4</ele>
        <time>2011-09-20T15:31:06Z</time>
      </trkpt>
      <trkpt lat="44.38089" lon="3.92978">
        <ele>837.2</ele>
        <time>2011-09-20T15:31:19Z</time>
      </trkpt>
      <trkpt lat="44.38094" lon="3.92987">
        <ele>838.9</ele>
        <time>2011-09-20T15:31:32Z</time>
      </trkpt>
      <trkpt lat="44.381" lon="3.92996">
        <ele>836.2</ele>
        <time>2011-09-20T15:31:46Z</time>
      </trkpt>
      <trkpt lat="44.38108" lon="3.93001">
        <ele>831</ele>
        <time>2011-09-20T15:32:01Z</time>
      </trkpt>
      <trkpt lat="44.38115" lon="3.93008">
        <ele>829.2</ele>
        <time>2011-09-20T15:32:14Z</time>
      </trkpt>
      <trkpt lat="44.38122" lon="3.93016">
        <ele>828.7</ele>
        <time>2011-09-20T15:32:25Z</time>
      </trkpt>
      <trkpt lat="44.38128" lon="3.93024">
        <ele>827.9</ele>
        <time>2011-09-20T15:32:39Z</time>
      </trkpt>
      <trkpt lat="44.38135" lon="3.93033">
        <ele>825.4</ele>
        <time>2011-09-20T15:32:52Z</time>
      </trkpt>
      <trkpt lat="44.3814" lon="3.93042">
        <ele>824.7</ele>
        <time>2011-09-20T15:33:16Z</time>
      </trkpt>
      <trkpt lat="44.38145" lon="3.93052">
        <ele>825.5</ele>
        <time>2011-09-20T15:33:36Z</time>
      </trkpt>
      <trkpt lat="44.38147" lon="3.93063">
        <ele>826.7</ele>
        <time>2011-09-20T15:33:50Z</time>
      </trkpt>
      <trkpt lat="44.38151" lon="3.93074">
        <ele>825.2</ele>
        <time>2011-09-20T15:34:12Z</time>
      </trkpt>
      <trkpt lat="44.38154" lon="3.93086">
        <ele>827.2</ele>
        <time>2011-09-20T15:34:28Z</time>
      </trkpt>
      <trkpt lat="44.3816" lon="3.93095">
        <ele>816.5</ele>
        <time>2011-09-20T15:34:54Z</time>
      </trkpt>
      <trkpt lat="44.38168" lon="3.931">
        <ele>812.7</ele>
        <time>2011-09-20T15:35:12Z</time>
      </trkpt>
      <trkpt lat="44.38177" lon="3.931">
        <ele>810.9</ele>
        <time>2011-09-20T15:35:30Z</time>
      </trkpt>
      <trkpt lat="44.38184" lon="3.93107">
        <ele>810</ele>
        <time>2011-09-20T15:40:36Z</time>
      </trkpt>
      <trkpt lat="44.38193" lon="3.9311">
        <ele>804.7</ele>
        <time>2011-09-20T15:40:53Z</time>
      </trkpt>
      <trkpt lat="44.38201" lon="3.93109">
        <ele>795.5</ele>
        <time>2011-09-20T15:41:15Z</time>
      </trkpt>
      <trkpt lat="44.3821" lon="3.9311">
        <ele>792.5</ele>
        <time>2011-09-20T15:41:29Z</time>
      </trkpt>
      <trkpt lat="44.38218" lon="3.93112">
        <ele>791.2</ele>
        <time>2011-09-20T15:41:42Z</time>
      </trkpt>
      <trkpt lat="44.38226" lon="3.93114">
        <ele>790.5</ele>
        <time>2011-09-20T15:41:52Z</time>
      </trkpt>
      <trkpt lat="44.38234" lon="3.93117">
        <ele>790.9</ele>
        <time>2011-09-20T15:42:03Z</time>
      </trkpt>
      <trkpt lat="44.38243" lon="3.93118">
        <ele>791</ele>
        <time>2011-09-20T15:42:13Z</time>
      </trkpt>
      <trkpt lat="44.38252" lon="3.9312">
        <ele>790.9</ele>
        <time>2011-09-20T15:42:25Z</time>
      </trkpt>
      <trkpt lat="44.3826" lon="3.93124">
        <ele>788.2</ele>
        <time>2011-09-20T15:42:36Z</time>
      </trkpt>
      <trkpt lat="44.38267" lon="3.93128">
        <ele>785.5</ele>
        <time>2011-09-20T15:42:47Z</time>
      </trkpt>
      <trkpt lat="44.38275" lon="3.93132">
        <ele>786.4</ele>
        <time>2011-09-20T15:42:55Z</time>
      </trkpt>
      <trkpt lat="44.38283" lon="3.93136">
        <ele>784</ele>
        <time>2011-09-20T15:43:07Z</time>
      </trkpt>
      <trkpt lat="44.3829" lon="3.93142">
        <ele>781.4</ele>
        <time>2011-09-20T15:43:17Z</time>
      </trkpt>
      <trkpt lat="44.38296" lon="3.9315">
        <ele>778.9</ele>
        <time>2011-09-20T15:43:28Z</time>
      </trkpt>
      <trkpt lat="44.38302" lon="3.93159">
        <ele>779.5</ele>
        <time>2011-09-20T15:43:38Z</time>
      </trkpt>
      <trkpt lat="44.38309" lon="3.93167">
        <ele>779.2</ele>
        <time>2011-09-20T15:43:51Z</time>
      </trkpt>
      <trkpt lat="44.38316" lon="3.93173">
        <ele>774.7</ele>
        <time>2011-09-20T15:44:07Z</time>
      </trkpt>
      <trkpt lat="44.38324" lon="3.9318">
        <ele>771.7</ele>
        <time>2011-09-20T15:44:22Z</time>
      </trkpt>
      <trkpt lat="44.38331" lon="3.93186">
        <ele>769.5</ele>
        <time>2011-09-20T15:44:42Z</time>
      </trkpt>
      <trkpt lat="44.38338" lon="3.93193">
        <ele>771</ele>
        <time>2011-09-20T15:45:00Z</time>
      </trkpt>
      <trkpt lat="44.38344" lon="3.93202">
        <ele>767.7</ele>
        <time>2011-09-20T15:45:17Z</time>
      </trkpt>
      <trkpt lat="44.3835" lon="3.93211">
        <ele>765.5</ele>
        <time>2011-09-20T15:45:33Z</time>
      </trkpt>
      <trkpt lat="44.38357" lon="3.93218">
        <ele>761.4</ele>
        <time>2011-09-20T15:46:02Z</time>
      </trkpt>
      <trkpt lat="44.38363" lon="3.93226">
        <ele>758</ele>
        <time>2011-09-20T15:46:25Z</time>
      </trkpt>
      <trkpt lat="44.38369" lon="3.93236">
        <ele>755.4</ele>
        <time>2011-09-20T15:46:45Z</time>
      </trkpt>
      <trkpt lat="44.38375" lon="3.93245">
        <ele>753.2</ele>
        <time>2011-09-20T15:47:03Z</time>
      </trkpt>
      <trkpt lat="44.3838" lon="3.93255">
        <ele>751.9</ele>
        <time>2011-09-20T15:47:23Z</time>
      </trkpt>
      <trkpt lat="44.38386" lon="3.93265">
        <ele>749.5</ele>
        <time>2011-09-20T15:47:45Z</time>
      </trkpt>
      <trkpt lat="44.38391" lon="3.93275">
        <ele>747.7</ele>
        <time>2011-09-20T15:48:08Z</time>
      </trkpt>
      <trkpt lat="44.38396" lon="3.93285">
        <ele>745</ele>
        <time>2011-09-20T15:48:25Z</time>
      </trkpt>
      <trkpt lat="44.38398" lon="3.93296">
        <ele>747.2</ele>
        <time>2011-09-20T15:48:37Z</time>
      </trkpt>
      <trkpt lat="44.38399" lon="3.93308">
        <ele>748.4</ele>
        <time>2011-09-20T15:48:50Z</time>
      </trkpt>
      <trkpt lat="44.38399" lon="3.93319">
        <ele>745.7</ele>
        <time>2011-09-20T15:49:04Z</time>
      </trkpt>
      <trkpt lat="44.38399" lon="3.93331">
        <ele>746</ele>
        <time>2011-09-20T15:49:21Z</time>
      </trkpt>
      <trkpt lat="44.38401" lon="3.93343">
        <ele>743.5</ele>
        <time>2011-09-20T15:49:44Z</time>
      </trkpt>
      <trkpt lat="44.38402" lon="3.93354">
        <ele>744.7</ele>
        <time>2011-09-20T15:50:06Z</time>
      </trkpt>
      <trkpt lat="44.38401" lon="3.93366">
        <ele>745.5</ele>
        <time>2011-09-20T15:50:17Z</time>
      </trkpt>
      <trkpt lat="44.38402" lon="3.93378">
        <ele>727.5</ele>
        <time>2011-09-20T15:50:55Z</time>
      </trkpt>
      <trkpt lat="44.38408" lon="3.93388">
        <ele>723</ele>
        <time>2011-09-20T15:51:09Z</time>
      </trkpt>
      <trkpt lat="44.38399" lon="3.93388">
        <ele>711.4</ele>
        <time>2011-09-20T15:52:02Z</time>
      </trkpt>
      <trkpt lat="44.38406" lon="3.93384">
        <ele>715.2</ele>
        <time>2011-09-20T15:52:08Z</time>
      </trkpt>
      <trkpt lat="44.38413" lon="3.93383">
        <ele>721.9</ele>
        <time>2011-09-20T15:52:10Z</time>
      </trkpt>
      <trkpt lat="44.38422" lon="3.9338">
        <ele>728.7</ele>
        <time>2011-09-20T15:52:13Z</time>
      </trkpt>
      <trkpt lat="44.38429" lon="3.93374">
        <ele>737.2</ele>
        <time>2011-09-20T15:52:22Z</time>
      </trkpt>
      <trkpt lat="44.38436" lon="3.93381">
        <ele>742.5</ele>
        <time>2011-09-20T15:53:00Z</time>
      </trkpt>
      <trkpt lat="44.38431" lon="3.93377">
        <ele>737.5</ele>
        <time>2011-09-20T15:53:29Z</time>
      </trkpt>
      <trkpt lat="44.38424" lon="3.93373">
        <ele>732.4</ele>
        <time>2011-09-20T15:53:32Z</time>
      </trkpt>
      <trkpt lat="44.38415" lon="3.93375">
        <ele>726.4</ele>
        <time>2011-09-20T15:53:39Z</time>
      </trkpt>
      <trkpt lat="44.38411" lon="3.93385">
        <ele>727</ele>
        <time>2011-09-20T15:53:51Z</time>
      </trkpt>
      <trkpt lat="44.38409" lon="3.93394">
        <ele>729.9</ele>
        <time>2011-09-20T15:54:20Z</time>
      </trkpt>
      <trkpt lat="44.38404" lon="3.93405">
        <ele>730.7</ele>
        <time>2011-09-20T15:54:31Z</time>
      </trkpt>
      <trkpt lat="44.38401" lon="3.93416">
        <ele>734.7</ele>
        <time>2011-09-20T15:54:38Z</time>
      </trkpt>
      <trkpt lat="44.38394" lon="3.93424">
        <ele>734.5</ele>
        <time>2011-09-20T15:54:52Z</time>
      </trkpt>
      <trkpt lat="44.3839" lon="3.93434">
        <ele>738.2</ele>
        <time>2011-09-20T15:54:58Z</time>
      </trkpt>
      <trkpt lat="44.38385" lon="3.93444">
        <ele>741.5</ele>
        <time>2011-09-20T15:55:04Z</time>
      </trkpt>
      <trkpt lat="44.38378" lon="3.9345">
        <ele>733.2</ele>
        <time>2011-09-20T15:55:14Z</time>
      </trkpt>
      <trkpt lat="44.38375" lon="3.93461">
        <ele>733.2</ele>
        <time>2011-09-20T15:55:20Z</time>
      </trkpt>
      <trkpt lat="44.38369" lon="3.9347">
        <ele>728.2</ele>
        <time>2011-09-20T15:55:31Z</time>
      </trkpt>
      <trkpt lat="44.38362" lon="3.93477">
        <ele>726.4</ele>
        <time>2011-09-20T15:55:39Z</time>
      </trkpt>
      <trkpt lat="44.38356" lon="3.93484">
        <ele>731.9</ele>
        <time>2011-09-20T15:55:48Z</time>
      </trkpt>
      <trkpt lat="44.38353" lon="3.93496">
        <ele>734</ele>
        <time>2011-09-20T15:55:57Z</time>
      </trkpt>
      <trkpt lat="44.3836" lon="3.93502">
        <ele>722.2</ele>
        <time>2011-09-20T15:56:16Z</time>
      </trkpt>
      <trkpt lat="44.38367" lon="3.93501">
        <ele>722.5</ele>
        <time>2011-09-20T15:56:18Z</time>
      </trkpt>
      <trkpt lat="44.38373" lon="3.93501">
        <ele>720.9</ele>
        <time>2011-09-20T15:56:20Z</time>
      </trkpt>
      <trkpt lat="44.38377" lon="3.93501">
        <ele>721</ele>
        <time>2011-09-20T15:56:21Z</time>
      </trkpt>
      <trkpt lat="44.38382" lon="3.93502">
        <ele>722.4</ele>
        <time>2011-09-20T15:56:22Z</time>
      </trkpt>
      <trkpt lat="44.38387" lon="3.93501">
        <ele>724</ele>
        <time>2011-09-20T15:56:23Z</time>
      </trkpt>
      <trkpt lat="44.38395" lon="3.93499">
        <ele>727.7</ele>
        <time>2011-09-20T15:56:27Z</time>
      </trkpt>
      <trkpt lat="44.38404" lon="3.93499">
        <ele>729.7</ele>
        <time>2011-09-20T15:56:33Z</time>
      </trkpt>
      <trkpt lat="44.38409" lon="3.93489">
        <ele>716.2</ele>
        <time>2011-09-20T15:56:50Z</time>
      </trkpt>
      <trkpt lat="44.38416" lon="3.9349">
        <ele>720.5</ele>
        <time>2011-09-20T15:56:53Z</time>
      </trkpt>
      <trkpt lat="44.38422" lon="3.9349">
        <ele>721.7</ele>
        <time>2011-09-20T15:56:59Z</time>
      </trkpt>
      <trkpt lat="44.38429" lon="3.93489">
        <ele>722.7</ele>
        <time>2011-09-20T15:57:05Z</time>
      </trkpt>
      <trkpt lat="44.38436" lon="3.93484">
        <ele>723.2</ele>
        <time>2011-09-20T15:57:12Z</time>
      </trkpt>
      <trkpt lat="44.38443" lon="3.9348">
        <ele>728.2</ele>
        <time>2011-09-20T15:57:16Z</time>
      </trkpt>
      <trkpt lat="44.38452" lon="3.93478">
        <ele>721.7</ele>
        <time>2011-09-20T15:57:24Z</time>
      </trkpt>
      <trkpt lat="44.38457" lon="3.9347">
        <ele>703.4</ele>
        <time>2011-09-20T15:57:45Z</time>
      </trkpt>
      <trkpt lat="44.38464" lon="3.93469">
        <ele>700.7</ele>
        <time>2011-09-20T15:57:52Z</time>
      </trkpt>
      <trkpt lat="44.38473" lon="3.93468">
        <ele>703.5</ele>
        <time>2011-09-20T15:57:56Z</time>
      </trkpt>
      <trkpt lat="44.3848" lon="3.93462">
        <ele>705.4</ele>
        <time>2011-09-20T15:58:04Z</time>
      </trkpt>
      <trkpt lat="44.38488" lon="3.93459">
        <ele>710</ele>
        <time>2011-09-20T15:58:08Z</time>
      </trkpt>
      <trkpt lat="44.38494" lon="3.93456">
        <ele>711</ele>
        <time>2011-09-20T15:58:13Z</time>
      </trkpt>
      <trkpt lat="44.3849" lon="3.93466">
        <ele>704</ele>
        <time>2011-09-20T15:58:27Z</time>
      </trkpt>
      <trkpt lat="44.38485" lon="3.93475">
        <ele>704.5</ele>
        <time>2011-09-20T15:58:33Z</time>
      </trkpt>
      <trkpt lat="44.38481" lon="3.93485">
        <ele>703.7</ele>
        <time>2011-09-20T15:58:41Z</time>
      </trkpt>
      <trkpt lat="44.38478" lon="3.93494">
        <ele>703.9</ele>
        <time>2011-09-20T15:58:48Z</time>
      </trkpt>
      <trkpt lat="44.38474" lon="3.93505">
        <ele>706.9</ele>
        <time>2011-09-20T15:58:55Z</time>
      </trkpt>
      <trkpt lat="44.38468" lon="3.93514">
        <ele>704.7</ele>
        <time>2011-09-20T15:59:05Z</time>
      </trkpt>
      <trkpt lat="44.38463" lon="3.93523">
        <ele>702.5</ele>
        <time>2011-09-20T15:59:13Z</time>
      </trkpt>
      <trkpt lat="44.38459" lon="3.93534">
        <ele>700</ele>
        <time>2011-09-20T15:59:22Z</time>
      </trkpt>
      <trkpt lat="44.38458" lon="3.93545">
        <ele>686.4</ele>
        <time>2011-09-20T15:59:35Z</time>
      </trkpt>
      <trkpt lat="44.38456" lon="3.93556">
        <ele>688.5</ele>
        <time>2011-09-20T15:59:41Z</time>
      </trkpt>
      <trkpt lat="44.38454" lon="3.93567">
        <ele>691.2</ele>
        <time>2011-09-20T15:59:46Z</time>
      </trkpt>
      <trkpt lat="44.38456" lon="3.93579">
        <ele>694.7</ele>
        <time>2011-09-20T15:59:53Z</time>
      </trkpt>
      <trkpt lat="44.3846" lon="3.93587">
        <ele>696.4</ele>
        <time>2011-09-20T16:00:01Z</time>
      </trkpt>
      <trkpt lat="44.38456" lon="3.93597">
        <ele>694</ele>
        <time>2011-09-20T16:00:08Z</time>
      </trkpt>
      <trkpt lat="44.38453" lon="3.93609">
        <ele>694</ele>
        <time>2011-09-20T16:00:16Z</time>
      </trkpt>
      <trkpt lat="44.3845" lon="3.93619">
        <ele>693.7</ele>
        <time>2011-09-20T16:00:23Z</time>
      </trkpt>
      <trkpt lat="44.38447" lon="3.93631">
        <ele>692</ele>
        <time>2011-09-20T16:00:31Z</time>
      </trkpt>
      <trkpt lat="44.38446" lon="3.93641">
        <ele>694.5</ele>
        <time>2011-09-20T16:00:37Z</time>
      </trkpt>
      <trkpt lat="44.38445" lon="3.93652">
        <ele>698.7</ele>
        <time>2011-09-20T16:00:42Z</time>
      </trkpt>
      <trkpt lat="44.38441" lon="3.93662">
        <ele>686.5</ele>
        <time>2011-09-20T16:00:56Z</time>
      </trkpt>
      <trkpt lat="44.38438" lon="3.93673">
        <ele>682.5</ele>
        <time>2011-09-20T16:01:05Z</time>
      </trkpt>
      <trkpt lat="44.38434" lon="3.93684">
        <ele>682.5</ele>
        <time>2011-09-20T16:01:13Z</time>
      </trkpt>
      <trkpt lat="44.38432" lon="3.93695">
        <ele>685.2</ele>
        <time>2011-09-20T16:01:19Z</time>
      </trkpt>
      <trkpt lat="44.38428" lon="3.93706">
        <ele>685.5</ele>
        <time>2011-09-20T16:01:28Z</time>
      </trkpt>
      <trkpt lat="44.38424" lon="3.93716">
        <ele>686.4</ele>
        <time>2011-09-20T16:01:34Z</time>
      </trkpt>
      <trkpt lat="44.38418" lon="3.93725">
        <ele>683.4</ele>
        <time>2011-09-20T16:01:43Z</time>
      </trkpt>
      <trkpt lat="44.38415" lon="3.93735">
        <ele>685.5</ele>
        <time>2011-09-20T16:01:50Z</time>
      </trkpt>
      <trkpt lat="44.3841" lon="3.93743">
        <ele>684.7</ele>
        <time>2011-09-20T16:01:58Z</time>
      </trkpt>
      <trkpt lat="44.38404" lon="3.93753">
        <ele>686.2</ele>
        <time>2011-09-20T16:02:06Z</time>
      </trkpt>
      <trkpt lat="44.384" lon="3.93762">
        <ele>687</ele>
        <time>2011-09-20T16:02:14Z</time>
      </trkpt>
      <trkpt lat="44.38393" lon="3.93767">
        <ele>681</ele>
        <time>2011-09-20T16:02:23Z</time>
      </trkpt>
      <trkpt lat="44.38385" lon="3.93766">
        <ele>675.7</ele>
        <time>2011-09-20T16:02:30Z</time>
      </trkpt>
      <trkpt lat="44.38376" lon="3.93768">
        <ele>672.7</ele>
        <time>2011-09-20T16:02:40Z</time>
      </trkpt>
      <trkpt lat="44.38368" lon="3.93768">
        <ele>668.7</ele>
        <time>2011-09-20T16:02:46Z</time>
      </trkpt>
      <trkpt lat="44.3836" lon="3.93769">
        <ele>667.5</ele>
        <time>2011-09-20T16:02:54Z</time>
      </trkpt>
      <trkpt lat="44.38354" lon="3.93778">
        <ele>666.9</ele>
        <time>2011-09-20T16:03:06Z</time>
      </trkpt>
      <trkpt lat="44.38358" lon="3.93788">
        <ele>666.5</ele>
        <time>2011-09-20T16:03:14Z</time>
      </trkpt>
      <trkpt lat="44.38365" lon="3.93795">
        <ele>665.2</ele>
        <time>2011-09-20T16:03:22Z</time>
      </trkpt>
      <trkpt lat="44.38374" lon="3.938">
        <ele>667</ele>
        <time>2011-09-20T16:03:30Z</time>
      </trkpt>
      <trkpt lat="44.38382" lon="3.93798">
        <ele>664</ele>
        <time>2011-09-20T16:03:39Z</time>
      </trkpt>
      <trkpt lat="44.38391" lon="3.93797">
        <ele>663.2</ele>
        <time>2011-09-20T16:03:50Z</time>
      </trkpt>
      <trkpt lat="44.38391" lon="3.9381">
        <ele>669.2</ele>
        <time>2011-09-20T16:03:59Z</time>
      </trkpt>
      <trkpt lat="44.38383" lon="3.93805">
        <ele>665</ele>
        <time>2011-09-20T16:04:11Z</time>
      </trkpt>
      <trkpt lat="44.38374" lon="3.93804">
        <ele>660.4</ele>
        <time>2011-09-20T16:04:19Z</time>
      </trkpt>
      <trkpt lat="44.38366" lon="3.93804">
        <ele>660</ele>
        <time>2011-09-20T16:04:28Z</time>
      </trkpt>
      <trkpt lat="44.38358" lon="3.93809">
        <ele>660.5</ele>
        <time>2011-09-20T16:04:39Z</time>
      </trkpt>
      <trkpt lat="44.38351" lon="3.93804">
        <ele>664.5</ele>
        <time>2011-09-20T16:04:46Z</time>
      </trkpt>
      <trkpt lat="44.38343" lon="3.93806">
        <ele>659</ele>
        <time>2011-09-20T16:05:06Z</time>
      </trkpt>
      <trkpt lat="44.38337" lon="3.93803">
        <ele>658.2</ele>
        <time>2011-09-20T16:05:08Z</time>
      </trkpt>
      <trkpt lat="44.3833" lon="3.9381">
        <ele>660</ele>
        <time>2011-09-20T16:05:17Z</time>
      </trkpt>
      <trkpt lat="44.38332" lon="3.93821">
        <ele>658.7</ele>
        <time>2011-09-20T16:05:24Z</time>
      </trkpt>
      <trkpt lat="44.38329" lon="3.93833">
        <ele>654.7</ele>
        <time>2011-09-20T16:05:27Z</time>
      </trkpt>
      <trkpt lat="44.38328" lon="3.93843">
        <ele>656.7</ele>
        <time>2011-09-20T16:05:29Z</time>
      </trkpt>
      <trkpt lat="44.38326" lon="3.93848">
        <ele>659.2</ele>
        <time>2011-09-20T16:05:30Z</time>
      </trkpt>
      <trkpt lat="44.38334" lon="3.93844">
        <ele>673.2</ele>
        <time>2011-09-20T16:05:37Z</time>
      </trkpt>
      <trkpt lat="44.3833" lon="3.93834">
        <ele>682.7</ele>
        <time>2011-09-20T16:05:44Z</time>
      </trkpt>
      <trkpt lat="44.38322" lon="3.93829">
        <ele>655</ele>
        <time>2011-09-20T16:06:07Z</time>
      </trkpt>
      <trkpt lat="44.38313" lon="3.93827">
        <ele>645.2</ele>
        <time>2011-09-20T16:06:15Z</time>
      </trkpt>
      <trkpt lat="44.38305" lon="3.9382">
        <ele>660.4</ele>
        <time>2011-09-20T16:06:23Z</time>
      </trkpt>
      <trkpt lat="44.38297" lon="3.93817">
        <ele>657.9</ele>
        <time>2011-09-20T16:06:31Z</time>
      </trkpt>
      <trkpt lat="44.3829" lon="3.9381">
        <ele>656.2</ele>
        <time>2011-09-20T16:06:38Z</time>
      </trkpt>
      <trkpt lat="44.38282" lon="3.93807">
        <ele>646.5</ele>
        <time>2011-09-20T16:07:39Z</time>
      </trkpt>
      <trkpt lat="44.38274" lon="3.93804">
        <ele>648</ele>
        <time>2011-09-20T16:08:07Z</time>
      </trkpt>
      <trkpt lat="44.38266" lon="3.93803">
        <ele>647</ele>
        <time>2011-09-20T16:08:16Z</time>
      </trkpt>
      <trkpt lat="44.38258" lon="3.93801">
        <ele>658.5</ele>
        <time>2011-09-20T16:08:27Z</time>
      </trkpt>
      <trkpt lat="44.38249" lon="3.93802">
        <ele>655.5</ele>
        <time>2011-09-20T16:08:35Z</time>
      </trkpt>
      <trkpt lat="44.38241" lon="3.93805">
        <ele>651.2</ele>
        <time>2011-09-20T16:08:45Z</time>
      </trkpt>
      <trkpt lat="44.38233" lon="3.93804">
        <ele>646</ele>
        <time>2011-09-20T16:08:52Z</time>
      </trkpt>
      <trkpt lat="44.38225" lon="3.93806">
        <ele>646</ele>
        <time>2011-09-20T16:09:11Z</time>
      </trkpt>
      <trkpt lat="44.38217" lon="3.93807">
        <ele>640.4</ele>
        <time>2011-09-20T16:09:32Z</time>
      </trkpt>
      <trkpt lat="44.38209" lon="3.93803">
        <ele>642.2</ele>
        <time>2011-09-20T16:09:42Z</time>
      </trkpt>
      <trkpt lat="44.38201" lon="3.93798">
        <ele>644.7</ele>
        <time>2011-09-20T16:09:51Z</time>
      </trkpt>
      <trkpt lat="44.38194" lon="3.93793">
        <ele>654.2</ele>
        <time>2011-09-20T16:10:07Z</time>
      </trkpt>
      <trkpt lat="44.38188" lon="3.93786">
        <ele>649.9</ele>
        <time>2011-09-20T16:10:11Z</time>
      </trkpt>
      <trkpt lat="44.38184" lon="3.93777">
        <ele>648.5</ele>
        <time>2011-09-20T16:10:17Z</time>
      </trkpt>
      <trkpt lat="44.38178" lon="3.93771">
        <ele>643.2</ele>
        <time>2011-09-20T16:10:20Z</time>
      </trkpt>
      <trkpt lat="44.3817" lon="3.93765">
        <ele>637.2</ele>
        <time>2011-09-20T16:10:25Z</time>
      </trkpt>
      <trkpt lat="44.38162" lon="3.9377">
        <ele>641.2</ele>
        <time>2011-09-20T16:10:34Z</time>
      </trkpt>
      <trkpt lat="44.38156" lon="3.93776">
        <ele>640.9</ele>
        <time>2011-09-20T16:10:41Z</time>
      </trkpt>
      <trkpt lat="44.38149" lon="3.93781">
        <ele>641.5</ele>
        <time>2011-09-20T16:10:53Z</time>
      </trkpt>
      <trkpt lat="44.3814" lon="3.93781">
        <ele>641.5</ele>
        <time>2011-09-20T16:10:57Z</time>
      </trkpt>
      <trkpt lat="44.38134" lon="3.9378">
        <ele>642.4</ele>
        <time>2011-09-20T16:10:59Z</time>
      </trkpt>
      <trkpt lat="44.38129" lon="3.93775">
        <ele>641.4</ele>
        <time>2011-09-20T16:11:01Z</time>
      </trkpt>
      <trkpt lat="44.38121" lon="3.93773">
        <ele>643.2</ele>
        <time>2011-09-20T16:11:04Z</time>
      </trkpt>
      <trkpt lat="44.38118" lon="3.93783">
        <ele>653.5</ele>
        <time>2011-09-20T16:11:09Z</time>
      </trkpt>
      <trkpt lat="44.38124" lon="3.93791">
        <ele>661.7</ele>
        <time>2011-09-20T16:11:11Z</time>
      </trkpt>
      <trkpt lat="44.38119" lon="3.93799">
        <ele>664</ele>
        <time>2011-09-20T16:11:21Z</time>
      </trkpt>
      <trkpt lat="44.38112" lon="3.93806">
        <ele>658.5</ele>
        <time>2011-09-20T16:11:29Z</time>
      </trkpt>
      <trkpt lat="44.38105" lon="3.93813">
        <ele>653.2</ele>
        <time>2011-09-20T16:11:38Z</time>
      </trkpt>
      <trkpt lat="44.38098" lon="3.93818">
        <ele>646.5</ele>
        <time>2011-09-20T16:11:46Z</time>
      </trkpt>
      <trkpt lat="44.38089" lon="3.93818">
        <ele>642</ele>
        <time>2011-09-20T16:11:54Z</time>
      </trkpt>
      <trkpt lat="44.38082" lon="3.93817">
        <ele>642.4</ele>
        <time>2011-09-20T16:11:57Z</time>
      </trkpt>
      <trkpt lat="44.38073" lon="3.93818">
        <ele>633</ele>
        <time>2011-09-20T16:12:09Z</time>
      </trkpt>
      <trkpt lat="44.38068" lon="3.93827">
        <ele>647.2</ele>
        <time>2011-09-20T16:12:26Z</time>
      </trkpt>
      <trkpt lat="44.3806" lon="3.93831">
        <ele>636.4</ele>
        <time>2011-09-20T16:12:33Z</time>
      </trkpt>
      <trkpt lat="44.38053" lon="3.93836">
        <ele>633.5</ele>
        <time>2011-09-20T16:12:37Z</time>
      </trkpt>
      <trkpt lat="44.3805" lon="3.93845">
        <ele>647.2</ele>
        <time>2011-09-20T16:12:46Z</time>
      </trkpt>
      <trkpt lat="44.38041" lon="3.93848">
        <ele>648.4</ele>
        <time>2011-09-20T16:12:52Z</time>
      </trkpt>
      <trkpt lat="44.38033" lon="3.93851">
        <ele>668</ele>
        <time>2011-09-20T16:13:08Z</time>
      </trkpt>
      <trkpt lat="44.38025" lon="3.9385">
        <ele>660.5</ele>
        <time>2011-09-20T16:13:10Z</time>
      </trkpt>
      <trkpt lat="44.38017" lon="3.93851">
        <ele>652.5</ele>
        <time>2011-09-20T16:13:14Z</time>
      </trkpt>
      <trkpt lat="44.3801" lon="3.93858">
        <ele>651.7</ele>
        <time>2011-09-20T16:13:18Z</time>
      </trkpt>
      <trkpt lat="44.38005" lon="3.93867">
        <ele>655.2</ele>
        <time>2011-09-20T16:13:26Z</time>
      </trkpt>
      <trkpt lat="44.37997" lon="3.93871">
        <ele>652.5</ele>
        <time>2011-09-20T16:13:35Z</time>
      </trkpt>
      <trkpt lat="44.37995" lon="3.93874">
        <ele>654</ele>
        <time>2011-09-20T16:13:39Z</time>
      </trkpt>
      <trkpt lat="44.37995" lon="3.93874">
        <ele>654</ele>
        <time>2011-09-20T16:13:39Z</time>
      </trkpt>
    </trkseg>
  </trk>
</gpx>